Time,TemperatureF,DewpointF,PressureIn,WindDirection,WindDirectionDegrees,WindSpeedMPH,WindSpeedGustMPH,Humidity,HourlyPrecipIn,Conditions,Clouds,dailyrainin,SoftwareType,DateUTC
2013-05-17 00:01:00,59.0,49.6,29.53,SW,223,2.7,2.7,71,0.00,,---,0.00,VWS V13.01,2013-05-17 07:01:00,
2013-05-17 00:02:00,59.0,49.6,29.53,South,189,3.1,4.0,71,0.00,,---,0.00,VWS V13.01,2013-05-17 07:02:00,
2013-05-17 00:03:00,59.0,49.6,29.53,South,189,3.1,3.1,71,0.00,,---,0.00,VWS V13.01,2013-05-17 07:03:00,
2013-05-17 00:06:00,59.0,49.6,29.53,WSW,237,4.0,4.0,71,0.00,,---,0.00,VWS V13.01,2013-05-17 07:06:00,
2013-05-17 00:07:00,58.6,49.7,29.53,SW,232,5.8,5.8,72,0.00,,---,0.00,VWS V13.01,2013-05-17 07:07:00,
2013-05-17 00:08:00,58.6,49.7,29.53,WSW,239,3.1,5.8,72,0.00,,---,0.00,VWS V13.01,2013-05-17 07:08:00,
2013-05-17 00:11:00,58.6,49.7,29.53,SW,233,4.0,4.0,72,0.00,,---,0.00,VWS V13.01,2013-05-17 07:11:00,
2013-05-17 00:12:00,58.6,49.7,29.53,WSW,256,3.1,3.1,72,0.00,,---,0.00,VWS V13.01,2013-05-17 07:12:00,
2013-05-17 00:13:00,58.6,49.7,29.53,WSW,252,5.8,5.8,72,0.00,,---,0.00,VWS V13.01,2013-05-17 07:13:00,
2013-05-17 00:16:00,58.3,49.3,29.53,WSW,247,4.0,4.0,72,0.00,,---,0.00,VWS V13.01,2013-05-17 07:16:00,
2013-05-17 00:17:00,58.3,49.3,29.53,WNW,286,2.7,2.7,72,0.00,,---,0.00,VWS V13.01,2013-05-17 07:17:00,
2013-05-17 00:18:00,58.3,49.3,29.53,WNW,286,2.7,2.7,72,0.00,,---,0.00,VWS V13.01,2013-05-17 07:18:00,
2013-05-17 00:21:00,58.3,49.3,29.53,West,272,2.2,4.0,72,0.00,,---,0.00,VWS V13.01,2013-05-17 07:21:00,
2013-05-17 00:22:00,58.3,49.3,29.53,West,272,2.2,2.2,72,0.00,,---,0.00,VWS V13.01,2013-05-17 07:22:00,
2013-05-17 00:23:00,58.3,49.3,29.53,WNW,283,0.0,2.2,72,0.00,,---,0.00,VWS V13.01,2013-05-17 07:23:00,
2013-05-17 00:26:00,58.3,49.3,29.53,West,266,3.6,3.6,72,0.00,,---,0.00,VWS V13.01,2013-05-17 07:26:00,
2013-05-17 00:27:00,58.3,49.3,29.53,SSW,213,4.0,4.0,72,0.00,,---,0.00,VWS V13.01,2013-05-17 07:27:00,
2013-05-17 00:28:00,57.9,49.0,29.53,SE,126,0.0,0.0,72,0.00,,---,0.00,VWS V13.01,2013-05-17 07:28:00,
2013-05-17 00:29:00,57.9,49.0,29.53,West,276,8.1,8.1,72,0.00,,---,0.00,VWS V13.01,2013-05-17 07:29:00,
2013-05-17 00:31:00,57.6,48.2,29.53,South,172,4.9,4.9,71,0.00,,---,0.00,VWS V13.01,2013-05-17 07:31:00,
2013-05-17 00:32:00,57.6,48.2,29.53,NE,56,2.7,4.9,71,0.00,,---,0.00,VWS V13.01,2013-05-17 07:32:00,
2013-05-17 00:33:00,57.6,48.2,29.53,NE,56,2.7,2.7,71,0.00,,---,0.00,VWS V13.01,2013-05-17 07:33:00,
2013-05-17 00:34:00,57.6,48.2,29.53,North,357,0.0,2.7,71,0.00,,---,0.00,VWS V13.01,2013-05-17 07:34:00,
2013-05-17 00:36:00,57.6,48.2,29.53,ENE,59,4.9,4.9,71,0.00,,---,0.00,VWS V13.01,2013-05-17 07:36:00,
2013-05-17 00:37:00,57.6,48.2,29.53,SW,222,4.0,4.0,71,0.00,,---,0.00,VWS V13.01,2013-05-17 07:37:00,
2013-05-17 00:38:00,57.6,48.2,29.53,South,179,5.8,5.8,71,0.00,,---,0.00,VWS V13.01,2013-05-17 07:38:00,
2013-05-17 00:39:00,57.6,48.2,29.53,South,179,5.8,5.8,71,0.00,,---,0.00,VWS V13.01,2013-05-17 07:39:00,
2013-05-17 00:41:00,57.4,48.1,29.53,South,183,3.1,3.1,71,0.00,,---,0.00,VWS V13.01,2013-05-17 07:41:00,
2013-05-17 00:42:00,57.4,48.1,29.53,South,183,3.1,3.1,71,0.00,,---,0.00,VWS V13.01,2013-05-17 07:42:00,
2013-05-17 00:43:00,57.4,48.1,29.53,WSW,256,0.0,0.0,71,0.00,,---,0.00,VWS V13.01,2013-05-17 07:43:00,
2013-05-17 00:44:00,57.4,48.1,29.53,SE,136,0.0,2.2,71,0.00,,---,0.00,VWS V13.01,2013-05-17 07:44:00,
2013-05-17 00:46:00,57.4,48.1,29.53,West,264,0.0,0.0,71,0.00,,---,0.00,VWS V13.01,2013-05-17 07:46:00,
2013-05-17 00:47:00,57.4,48.1,29.53,West,264,0.0,0.0,71,0.00,,---,0.00,VWS V13.01,2013-05-17 07:47:00,
2013-05-17 00:49:00,57.4,48.1,29.53,South,184,4.0,4.0,71,0.00,,---,0.00,VWS V13.01,2013-05-17 07:49:00,
2013-05-17 00:51:00,57.4,48.1,29.53,West,267,3.6,3.6,71,0.00,,---,0.00,VWS V13.01,2013-05-17 07:51:00,
2013-05-17 00:52:00,57.4,48.1,29.53,SSW,208,2.2,2.2,71,0.00,,---,0.00,VWS V13.01,2013-05-17 07:52:00,
2013-05-17 00:54:00,57.2,47.9,29.53,West,275,4.0,4.0,71,0.00,,---,0.00,VWS V13.01,2013-05-17 07:54:00,
2013-05-17 00:56:00,57.2,47.9,29.53,SW,235,2.7,2.7,71,0.00,,---,0.00,VWS V13.01,2013-05-17 07:56:00,
2013-05-17 00:57:00,57.2,47.9,29.53,West,278,2.7,2.7,71,0.00,,---,0.00,VWS V13.01,2013-05-17 07:57:00,
2013-05-17 00:59:00,57.2,47.9,29.53,WSW,248,0.0,0.0,71,0.00,,---,0.00,VWS V13.01,2013-05-17 07:59:00,
2013-05-17 01:01:00,57.2,47.9,29.53,SW,233,0.0,0.0,71,0.00,,---,0.00,VWS V13.01,2013-05-17 08:01:00,
2013-05-17 01:02:00,57.2,47.9,29.53,West,259,3.6,3.6,71,0.00,,---,0.00,VWS V13.01,2013-05-17 08:02:00,
2013-05-17 01:04:00,57.2,47.9,29.53,WSW,253,8.1,8.1,71,0.00,,---,0.00,VWS V13.01,2013-05-17 08:04:00,
2013-05-17 01:06:00,57.2,47.9,29.53,West,259,3.1,3.1,71,0.00,,---,0.00,VWS V13.01,2013-05-17 08:06:00,
2013-05-17 01:07:00,56.8,47.9,29.53,West,273,2.7,3.1,72,0.00,,---,0.00,VWS V13.01,2013-05-17 08:07:00,
2013-05-17 01:08:00,56.8,47.9,29.53,West,273,2.7,2.7,72,0.00,,---,0.00,VWS V13.01,2013-05-17 08:08:00,
2013-05-17 01:09:00,56.8,47.9,29.53,West,263,5.4,5.8,72,0.00,,---,0.00,VWS V13.01,2013-05-17 08:09:00,
2013-05-17 01:10:00,56.8,47.9,29.53,West,263,5.4,5.8,72,0.00,,---,0.00,VWS V13.01,2013-05-17 08:10:00,
2013-05-17 01:11:00,56.8,47.9,29.53,SW,226,4.0,4.0,72,0.00,,---,0.00,VWS V13.01,2013-05-17 08:11:00,
2013-05-17 01:13:00,56.8,47.9,29.53,SW,226,3.6,4.9,72,0.00,,---,0.00,VWS V13.01,2013-05-17 08:13:00,
2013-05-17 01:14:00,56.8,47.9,29.53,SE,125,3.1,3.1,72,0.00,,---,0.00,VWS V13.01,2013-05-17 08:14:00,
2013-05-17 01:15:00,56.8,47.9,29.53,SW,229,6.3,6.3,72,0.00,,---,0.00,VWS V13.01,2013-05-17 08:15:00,
2013-05-17 01:16:00,56.8,47.9,29.53,WSW,238,3.6,5.8,72,0.00,,---,0.00,VWS V13.01,2013-05-17 08:16:00,
2013-05-17 01:18:00,56.8,47.9,29.53,West,267,4.9,4.9,72,0.00,,---,0.00,VWS V13.01,2013-05-17 08:18:00,
2013-05-17 01:19:00,56.8,47.9,29.53,WNW,285,3.6,3.6,72,0.00,,---,0.00,VWS V13.01,2013-05-17 08:19:00,
2013-05-17 01:20:00,56.8,47.9,29.53,WNW,285,3.6,3.6,72,0.00,,---,0.00,VWS V13.01,2013-05-17 08:20:00,
2013-05-17 01:22:00,56.8,47.9,29.53,WNW,293,3.6,3.6,72,0.00,,---,0.00,VWS V13.01,2013-05-17 08:22:00,
2013-05-17 01:23:00,56.8,47.9,29.53,West,260,3.1,3.6,72,0.00,,---,0.00,VWS V13.01,2013-05-17 08:23:00,
2013-05-17 01:25:00,56.8,47.9,29.53,SW,232,3.6,3.6,72,0.00,,---,0.00,VWS V13.01,2013-05-17 08:25:00,
2013-05-17 01:27:00,56.8,47.9,29.53,WNW,288,2.7,2.7,72,0.00,,---,0.00,VWS V13.01,2013-05-17 08:27:00,
2013-05-17 01:28:00,56.8,47.9,29.53,WNW,288,2.7,2.7,72,0.00,,---,0.00,VWS V13.01,2013-05-17 08:28:00,
2013-05-17 01:30:00,56.8,47.9,29.53,ESE,117,3.1,3.1,72,0.00,,---,0.00,VWS V13.01,2013-05-17 08:30:00,
2013-05-17 01:32:00,56.8,47.9,29.53,WSW,249,3.6,3.6,72,0.00,,---,0.00,VWS V13.01,2013-05-17 08:32:00,
2013-05-17 01:34:00,56.8,47.9,29.53,SW,233,2.2,2.2,72,0.00,,---,0.00,VWS V13.01,2013-05-17 08:34:00,
2013-05-17 01:35:00,56.8,47.9,29.53,South,174,0.0,2.2,72,0.00,,---,0.00,VWS V13.01,2013-05-17 08:35:00,
2013-05-17 01:36:00,56.8,47.9,29.53,ESE,111,3.6,3.6,72,0.00,,---,0.00,VWS V13.01,2013-05-17 08:36:00,
2013-05-17 01:37:00,56.8,47.9,29.53,WNW,288,2.2,3.6,72,0.00,,---,0.00,VWS V13.01,2013-05-17 08:37:00,
2013-05-17 01:39:00,56.8,47.9,29.53,WNW,287,4.0,4.0,72,0.00,,---,0.00,VWS V13.01,2013-05-17 08:39:00,
2013-05-17 01:40:00,56.8,47.9,29.53,WNW,287,2.2,2.2,72,0.00,,---,0.00,VWS V13.01,2013-05-17 08:40:00,
2013-05-17 01:41:00,56.8,47.9,29.53,WSW,247,0.0,0.0,72,0.00,,---,0.00,VWS V13.01,2013-05-17 08:41:00,
2013-05-17 01:42:00,56.8,47.9,29.53,West,272,5.4,5.4,72,0.00,,---,0.00,VWS V13.01,2013-05-17 08:42:00,
2013-05-17 01:44:00,56.8,47.9,29.53,West,260,4.0,5.4,72,0.00,,---,0.00,VWS V13.01,2013-05-17 08:44:00,
2013-05-17 01:45:00,56.3,47.4,29.53,West,260,3.1,3.1,72,0.00,,---,0.00,VWS V13.01,2013-05-17 08:45:00,
2013-05-17 01:46:00,56.3,47.4,29.53,WNW,286,5.4,5.4,72,0.00,,---,0.00,VWS V13.01,2013-05-17 08:46:00,
2013-05-17 01:47:00,56.3,47.4,29.53,West,275,3.6,5.4,72,0.00,,---,0.00,VWS V13.01,2013-05-17 08:47:00,
2013-05-17 01:49:00,56.3,47.4,29.53,West,270,3.6,3.6,72,0.00,,---,0.00,VWS V13.01,2013-05-17 08:49:00,
2013-05-17 01:50:00,56.3,47.4,29.53,West,270,3.6,3.6,72,0.00,,---,0.00,VWS V13.01,2013-05-17 08:50:00,
2013-05-17 01:51:00,56.3,47.4,29.53,SSW,200,3.1,4.9,72,0.00,,---,0.00,VWS V13.01,2013-05-17 08:51:00,
2013-05-17 01:52:00,56.3,47.4,29.53,SSE,168,2.7,2.7,72,0.00,,---,0.00,VWS V13.01,2013-05-17 08:52:00,
2013-05-17 01:54:00,56.3,47.4,29.53,NW,323,2.7,3.1,72,0.00,,---,0.00,VWS V13.01,2013-05-17 08:54:00,
2013-05-17 01:55:00,56.3,47.4,29.53,NW,323,0.0,0.0,72,0.00,,---,0.00,VWS V13.01,2013-05-17 08:55:00,
2013-05-17 01:56:00,56.3,47.4,29.53,NNE,16,0.0,0.0,72,0.00,,---,0.00,VWS V13.01,2013-05-17 08:56:00,
2013-05-17 01:57:00,56.3,47.4,29.53,SW,236,3.1,3.1,72,0.00,,---,0.00,VWS V13.01,2013-05-17 08:57:00,
2013-05-17 01:59:00,55.8,47.6,29.53,SW,215,3.1,3.1,74,0.00,,---,0.00,VWS V13.01,2013-05-17 08:59:00,
2013-05-17 02:00:00,55.8,47.6,29.53,East,95,4.0,4.0,74,0.00,,---,0.00,VWS V13.01,2013-05-17 09:00:00,
2013-05-17 02:01:00,55.8,47.6,29.53,ESE,113,3.1,3.6,74,0.00,,---,0.00,VWS V13.01,2013-05-17 09:01:00,
2013-05-17 02:02:00,55.8,47.6,29.53,ESE,113,3.1,3.1,74,0.00,,---,0.00,VWS V13.01,2013-05-17 09:02:00,
2013-05-17 02:04:00,55.6,47.4,29.53,SW,233,2.7,2.7,74,0.00,,---,0.00,VWS V13.01,2013-05-17 09:04:00,
2013-05-17 02:05:00,55.6,47.4,29.53,WSW,258,0.0,2.7,74,0.00,,---,0.00,VWS V13.01,2013-05-17 09:05:00,
2013-05-17 02:06:00,55.6,47.4,29.53,WNW,295,2.7,2.7,74,0.00,,---,0.00,VWS V13.01,2013-05-17 09:06:00,
2013-05-17 02:08:00,55.6,47.4,29.53,WNW,295,2.7,2.7,74,0.00,,---,0.00,VWS V13.01,2013-05-17 09:08:00,
2013-05-17 02:09:00,55.4,48.0,29.53,SE,138,2.2,4.9,76,0.00,,---,0.00,VWS V13.01,2013-05-17 09:09:00,
2013-05-17 02:10:00,55.4,48.0,29.53,SE,138,2.2,2.2,76,0.00,,---,0.00,VWS V13.01,2013-05-17 09:10:00,
2013-05-17 02:11:00,55.4,48.0,29.53,WSW,257,2.7,2.7,76,0.00,,---,0.00,VWS V13.01,2013-05-17 09:11:00,
2013-05-17 02:13:00,55.4,48.0,29.53,NW,313,2.7,2.7,76,0.00,,---,0.00,VWS V13.01,2013-05-17 09:13:00,
2013-05-17 02:14:00,55.4,48.0,29.53,SW,225,4.9,4.9,76,0.00,,---,0.00,VWS V13.01,2013-05-17 09:14:00,
2013-05-17 02:15:00,55.4,48.0,29.53,SW,225,4.9,4.9,76,0.00,,---,0.00,VWS V13.01,2013-05-17 09:15:00,
2013-05-17 02:16:00,55.4,48.0,29.53,WSW,248,3.1,3.1,76,0.00,,---,0.00,VWS V13.01,2013-05-17 09:16:00,
2013-05-17 02:18:00,55.4,48.0,29.53,WSW,248,3.1,3.1,76,0.00,,---,0.00,VWS V13.01,2013-05-17 09:18:00,
2013-05-17 02:19:00,55.4,48.0,29.53,SSE,152,0.0,2.2,76,0.00,,---,0.00,VWS V13.01,2013-05-17 09:19:00,
2013-05-17 02:20:00,55.4,48.0,29.53,SSE,152,0.0,0.0,76,0.00,,---,0.00,VWS V13.01,2013-05-17 09:20:00,
2013-05-17 02:21:00,55.4,48.0,29.53,SSE,152,0.0,0.0,76,0.00,,---,0.00,VWS V13.01,2013-05-17 09:21:00,
2013-05-17 02:23:00,55.4,48.0,29.53,SE,124,2.2,2.2,76,0.00,,---,0.00,VWS V13.01,2013-05-17 09:23:00,
2013-05-17 02:25:00,55.4,48.0,29.53,WSW,258,2.7,2.7,76,0.00,,---,0.00,VWS V13.01,2013-05-17 09:25:00,
2013-05-17 02:26:00,54.9,48.5,29.53,WSW,258,2.7,2.7,79,0.00,,---,0.00,VWS V13.01,2013-05-17 09:26:00,
2013-05-17 02:28:00,54.9,48.5,29.53,SW,234,2.7,2.7,79,0.00,,---,0.00,VWS V13.01,2013-05-17 09:28:00,
2013-05-17 02:30:00,54.9,48.5,29.53,West,279,2.7,2.7,79,0.00,,---,0.00,VWS V13.01,2013-05-17 09:30:00,
2013-05-17 02:31:00,54.9,48.5,29.53,North,357,2.7,2.7,79,0.00,,---,0.00,VWS V13.01,2013-05-17 09:31:00,
2013-05-17 02:32:00,54.7,48.6,29.53,West,277,4.0,4.0,80,0.00,,---,0.00,VWS V13.01,2013-05-17 09:32:00,
2013-05-17 02:33:00,54.7,48.6,29.53,WSW,245,2.2,4.0,80,0.00,,---,0.00,VWS V13.01,2013-05-17 09:33:00,
2013-05-17 02:35:00,54.3,48.6,29.53,WSW,245,2.2,2.2,81,0.00,,---,0.00,VWS V13.01,2013-05-17 09:35:00,
2013-05-17 02:36:00,54.3,48.6,29.53,NNE,14,0.0,2.2,81,0.00,,---,0.00,VWS V13.01,2013-05-17 09:36:00,
2013-05-17 02:38:00,54.3,49.0,29.53,SE,142,3.6,3.6,82,0.00,,---,0.00,VWS V13.01,2013-05-17 09:38:00,
2013-05-17 02:40:00,54.3,49.0,29.53,SE,130,0.0,0.0,82,0.00,,---,0.00,VWS V13.01,2013-05-17 09:40:00,
2013-05-17 02:41:00,54.5,49.1,29.53,ENE,78,3.1,3.1,82,0.00,,---,0.00,VWS V13.01,2013-05-17 09:41:00,
2013-05-17 02:43:00,54.5,49.1,29.53,NW,308,0.0,0.0,82,0.00,,---,0.00,VWS V13.01,2013-05-17 09:43:00,
2013-05-17 02:45:00,54.5,49.1,29.53,NW,308,0.0,0.0,82,0.00,,---,0.00,VWS V13.01,2013-05-17 09:45:00,
2013-05-17 02:46:00,54.5,49.1,29.53,NW,308,0.0,0.0,82,0.00,,---,0.00,VWS V13.01,2013-05-17 09:46:00,
2013-05-17 02:47:00,54.5,49.1,29.53,NW,308,0.0,0.0,82,0.00,,---,0.00,VWS V13.01,2013-05-17 09:47:00,
2013-05-17 02:49:00,54.5,49.1,29.53,NW,308,0.0,0.0,82,0.00,,---,0.00,VWS V13.01,2013-05-17 09:49:00,
2013-05-17 02:50:00,54.7,49.6,29.53,SSE,157,0.0,0.0,83,0.00,,---,0.00,VWS V13.01,2013-05-17 09:50:00,
2013-05-17 02:51:00,54.5,49.5,29.53,SSE,157,0.0,0.0,83,0.00,,---,0.00,VWS V13.01,2013-05-17 09:51:00,
2013-05-17 02:52:00,54.5,49.5,29.53,SW,229,0.0,0.0,83,0.00,,---,0.00,VWS V13.01,2013-05-17 09:52:00,
2013-05-17 02:54:00,54.5,49.5,29.53,SW,229,0.0,0.0,83,0.00,,---,0.00,VWS V13.01,2013-05-17 09:54:00,
2013-05-17 02:55:00,54.5,49.5,29.53,WSW,249,2.7,2.7,83,0.00,,---,0.00,VWS V13.01,2013-05-17 09:55:00,
2013-05-17 02:56:00,54.5,49.5,29.53,WSW,249,2.7,2.7,83,0.00,,---,0.00,VWS V13.01,2013-05-17 09:56:00,
2013-05-17 02:57:00,54.5,49.5,29.53,NW,309,0.0,2.7,83,0.00,,---,0.00,VWS V13.01,2013-05-17 09:57:00,
2013-05-17 02:59:00,54.3,49.6,29.53,NW,309,0.0,0.0,84,0.00,,---,0.00,VWS V13.01,2013-05-17 09:59:00,
2013-05-17 03:00:00,54.3,49.6,29.53,NW,309,0.0,0.0,84,0.00,,---,0.00,VWS V13.01,2013-05-17 10:00:00,
2013-05-17 03:01:00,54.3,49.6,29.53,NW,309,0.0,0.0,84,0.00,,---,0.00,VWS V13.01,2013-05-17 10:01:00,
2013-05-17 03:02:00,54.3,49.6,29.53,NW,309,0.0,0.0,84,0.00,,---,0.00,VWS V13.01,2013-05-17 10:02:00,
2013-05-17 03:04:00,54.3,49.6,29.53,SW,220,0.0,0.0,84,0.00,,---,0.00,VWS V13.01,2013-05-17 10:04:00,
2013-05-17 03:05:00,54.5,49.8,29.53,NW,307,0.0,0.0,84,0.00,,---,0.00,VWS V13.01,2013-05-17 10:05:00,
2013-05-17 03:06:00,54.5,49.8,29.53,NW,307,0.0,0.0,84,0.00,,---,0.00,VWS V13.01,2013-05-17 10:06:00,
2013-05-17 03:07:00,54.7,50.0,29.53,NW,307,0.0,0.0,84,0.00,,---,0.00,VWS V13.01,2013-05-17 10:07:00,
2013-05-17 03:09:00,54.7,50.0,29.53,NW,307,0.0,0.0,84,0.00,,---,0.00,VWS V13.01,2013-05-17 10:09:00,
2013-05-17 03:10:00,54.7,50.0,29.53,NW,307,0.0,0.0,84,0.00,,---,0.00,VWS V13.01,2013-05-17 10:10:00,
2013-05-17 03:11:00,54.7,50.0,29.53,NW,307,0.0,0.0,84,0.00,,---,0.00,VWS V13.01,2013-05-17 10:11:00,
2013-05-17 03:12:00,54.7,50.0,29.53,NW,307,0.0,0.0,84,0.00,,---,0.00,VWS V13.01,2013-05-17 10:12:00,
2013-05-17 03:14:00,54.7,50.0,29.53,NW,307,0.0,0.0,84,0.00,,---,0.00,VWS V13.01,2013-05-17 10:14:00,
2013-05-17 03:16:00,54.7,50.0,29.53,NW,307,0.0,0.0,84,0.00,,---,0.00,VWS V13.01,2013-05-17 10:16:00,
2013-05-17 03:17:00,54.7,50.0,29.53,NW,307,0.0,0.0,84,0.00,,---,0.00,VWS V13.01,2013-05-17 10:17:00,
2013-05-17 03:19:00,54.7,50.0,29.53,NW,307,0.0,0.0,84,0.00,,---,0.00,VWS V13.01,2013-05-17 10:19:00,
2013-05-17 03:21:00,54.7,50.0,29.53,NW,307,0.0,0.0,84,0.00,,---,0.00,VWS V13.01,2013-05-17 10:21:00,
2013-05-17 03:22:00,54.7,50.0,29.53,NW,307,0.0,0.0,84,0.00,,---,0.00,VWS V13.01,2013-05-17 10:22:00,
2013-05-17 03:23:00,54.7,50.0,29.53,NW,310,0.0,0.0,84,0.00,,---,0.00,VWS V13.01,2013-05-17 10:23:00,
2013-05-17 03:24:00,54.7,50.0,29.53,WNW,289,0.0,0.0,84,0.00,,---,0.00,VWS V13.01,2013-05-17 10:24:00,
2013-05-17 03:26:00,54.5,49.8,29.53,SSW,209,2.2,2.2,84,0.00,,---,0.00,VWS V13.01,2013-05-17 10:26:00,
2013-05-17 03:27:00,54.5,49.8,29.53,SSW,209,2.2,2.2,84,0.00,,---,0.00,VWS V13.01,2013-05-17 10:27:00,
2013-05-17 03:28:00,54.5,49.8,29.53,SSW,209,2.2,2.2,84,0.00,,---,0.00,VWS V13.01,2013-05-17 10:28:00,
2013-05-17 03:29:00,54.5,49.8,29.53,West,271,0.0,0.0,84,0.00,,---,0.00,VWS V13.01,2013-05-17 10:29:00,
2013-05-17 03:31:00,54.5,50.1,29.53,West,271,0.0,0.0,85,0.00,,---,0.00,VWS V13.01,2013-05-17 10:31:00,
2013-05-17 03:32:00,54.5,50.1,29.53,WSW,238,0.0,0.0,85,0.00,,---,0.00,VWS V13.01,2013-05-17 10:32:00,
2013-05-17 03:33:00,54.5,50.1,29.53,WSW,238,0.0,0.0,85,0.00,,---,0.00,VWS V13.01,2013-05-17 10:33:00,
2013-05-17 03:35:00,54.0,49.6,29.53,West,266,0.0,0.0,85,0.00,,---,0.00,VWS V13.01,2013-05-17 10:35:00,
2013-05-17 03:36:00,54.0,49.6,29.53,West,266,0.0,0.0,85,0.00,,---,0.00,VWS V13.01,2013-05-17 10:36:00,
2013-05-17 03:38:00,54.0,49.6,29.53,West,266,0.0,0.0,85,0.00,,---,0.00,VWS V13.01,2013-05-17 10:38:00,
2013-05-17 03:40:00,54.0,49.6,29.53,West,266,0.0,0.0,85,0.00,,---,0.00,VWS V13.01,2013-05-17 10:40:00,
2013-05-17 03:41:00,54.0,49.6,29.53,WNW,286,3.1,3.1,85,0.00,,---,0.00,VWS V13.01,2013-05-17 10:41:00,
2013-05-17 03:43:00,54.0,49.6,29.53,WNW,286,0.0,0.0,85,0.00,,---,0.00,VWS V13.01,2013-05-17 10:43:00,
2013-05-17 03:45:00,54.1,49.7,29.53,WNW,286,0.0,0.0,85,0.00,,---,0.00,VWS V13.01,2013-05-17 10:45:00,
2013-05-17 03:46:00,54.1,49.7,29.53,West,261,0.0,0.0,85,0.00,,---,0.00,VWS V13.01,2013-05-17 10:46:00,
2013-05-17 03:48:00,54.1,49.7,29.53,West,266,0.0,0.0,85,0.00,,---,0.00,VWS V13.01,2013-05-17 10:48:00,
2013-05-17 03:50:00,54.0,49.6,29.53,West,266,0.0,0.0,85,0.00,,---,0.00,VWS V13.01,2013-05-17 10:50:00,
2013-05-17 03:52:00,54.0,49.6,29.53,West,266,0.0,0.0,85,0.00,,---,0.00,VWS V13.01,2013-05-17 10:52:00,
2013-05-17 03:53:00,54.0,49.6,29.53,West,270,0.0,0.0,85,0.00,,---,0.00,VWS V13.01,2013-05-17 10:53:00,
2013-05-17 03:55:00,54.0,49.6,29.53,West,270,0.0,0.0,85,0.00,,---,0.00,VWS V13.01,2013-05-17 10:55:00,
2013-05-17 03:57:00,53.8,49.7,29.53,West,270,0.0,0.0,86,0.00,,---,0.00,VWS V13.01,2013-05-17 10:57:00,
2013-05-17 03:58:00,53.8,49.7,29.53,West,270,0.0,0.0,86,0.00,,---,0.00,VWS V13.01,2013-05-17 10:58:00,
2013-05-17 04:00:00,53.8,49.7,29.53,SW,220,0.0,0.0,86,0.00,,---,0.00,VWS V13.01,2013-05-17 11:00:00,
2013-05-17 04:02:00,54.1,50.0,29.53,SW,220,0.0,0.0,86,0.00,,---,0.00,VWS V13.01,2013-05-17 11:02:00,
2013-05-17 04:03:00,54.1,50.0,29.53,SW,220,0.0,0.0,86,0.00,,---,0.00,VWS V13.01,2013-05-17 11:03:00,
2013-05-17 04:04:00,54.1,50.0,29.53,SW,220,0.0,0.0,86,0.00,,---,0.00,VWS V13.01,2013-05-17 11:04:00,
2013-05-17 04:05:00,54.1,50.0,29.53,SW,220,0.0,0.0,86,0.00,,---,0.00,VWS V13.01,2013-05-17 11:05:00,
2013-05-17 04:07:00,54.1,50.0,29.53,SW,220,0.0,0.0,86,0.00,,---,0.00,VWS V13.01,2013-05-17 11:07:00,
2013-05-17 04:08:00,54.1,50.0,29.53,SW,220,0.0,0.0,86,0.00,,---,0.00,VWS V13.01,2013-05-17 11:08:00,
2013-05-17 04:09:00,54.5,50.4,29.53,SW,220,0.0,0.0,86,0.00,,---,0.00,VWS V13.01,2013-05-17 11:09:00,
2013-05-17 04:10:00,54.5,50.4,29.53,SW,220,0.0,0.0,86,0.00,,---,0.00,VWS V13.01,2013-05-17 11:10:00,
2013-05-17 04:12:00,54.5,50.4,29.53,SW,220,0.0,0.0,86,0.00,,---,0.00,VWS V13.01,2013-05-17 11:12:00,
2013-05-17 04:13:00,54.3,50.2,29.53,SW,220,0.0,0.0,86,0.00,,---,0.00,VWS V13.01,2013-05-17 11:13:00,
2013-05-17 04:14:00,54.3,50.2,29.53,SW,220,0.0,0.0,86,0.00,,---,0.00,VWS V13.01,2013-05-17 11:14:00,
2013-05-17 04:16:00,54.3,50.2,29.53,SW,220,0.0,0.0,86,0.00,,---,0.00,VWS V13.01,2013-05-17 11:16:00,
2013-05-17 04:17:00,54.3,50.2,29.53,SW,220,0.0,0.0,86,0.00,,---,0.00,VWS V13.01,2013-05-17 11:17:00,
2013-05-17 04:18:00,54.3,50.2,29.53,SW,220,0.0,0.0,86,0.00,,---,0.00,VWS V13.01,2013-05-17 11:18:00,
2013-05-17 04:19:00,54.3,50.2,29.53,SW,220,0.0,0.0,86,0.00,,---,0.00,VWS V13.01,2013-05-17 11:19:00,
2013-05-17 04:21:00,54.1,50.0,29.53,SW,220,0.0,0.0,86,0.00,,---,0.00,VWS V13.01,2013-05-17 11:21:00,
2013-05-17 04:22:00,54.0,50.2,29.53,SW,220,0.0,0.0,87,0.00,,---,0.00,VWS V13.01,2013-05-17 11:22:00,
2013-05-17 04:23:00,54.0,50.2,29.53,SW,220,0.0,0.0,87,0.00,,---,0.00,VWS V13.01,2013-05-17 11:23:00,
2013-05-17 04:24:00,54.0,50.2,29.53,SW,220,0.0,0.0,87,0.00,,---,0.00,VWS V13.01,2013-05-17 11:24:00,
2013-05-17 04:26:00,54.0,50.2,29.53,SW,231,0.0,0.0,87,0.00,,---,0.00,VWS V13.01,2013-05-17 11:26:00,
2013-05-17 04:27:00,54.0,50.2,29.53,SW,231,0.0,0.0,87,0.00,,---,0.00,VWS V13.01,2013-05-17 11:27:00,
2013-05-17 04:28:00,54.0,50.2,29.53,SW,231,0.0,0.0,87,0.00,,---,0.00,VWS V13.01,2013-05-17 11:28:00,
2013-05-17 04:29:00,54.1,50.4,29.53,SW,231,0.0,0.0,87,0.00,,---,0.00,VWS V13.01,2013-05-17 11:29:00,
2013-05-17 04:31:00,54.1,50.4,29.53,SW,231,0.0,0.0,87,0.00,,---,0.00,VWS V13.01,2013-05-17 11:31:00,
2013-05-17 04:32:00,54.1,50.4,29.53,SW,231,0.0,0.0,87,0.00,,---,0.00,VWS V13.01,2013-05-17 11:32:00,
2013-05-17 04:34:00,54.1,50.4,29.53,SW,231,0.0,0.0,87,0.00,,---,0.00,VWS V13.01,2013-05-17 11:34:00,
2013-05-17 04:35:00,54.5,50.7,29.53,SW,231,0.0,0.0,87,0.00,,---,0.00,VWS V13.01,2013-05-17 11:35:00,
2013-05-17 04:36:00,54.5,50.7,29.53,SW,231,0.0,0.0,87,0.00,,---,0.00,VWS V13.01,2013-05-17 11:36:00,
2013-05-17 04:38:00,54.5,50.7,29.53,SW,231,0.0,0.0,87,0.00,,---,0.00,VWS V13.01,2013-05-17 11:38:00,
2013-05-17 04:40:00,54.5,50.7,29.53,SW,231,0.0,0.0,87,0.00,,---,0.00,VWS V13.01,2013-05-17 11:40:00,
2013-05-17 04:41:00,54.5,50.7,29.53,SW,231,0.0,0.0,87,0.00,,---,0.00,VWS V13.01,2013-05-17 11:41:00,
2013-05-17 04:43:00,54.5,50.7,29.53,SW,231,0.0,0.0,87,0.00,,---,0.00,VWS V13.01,2013-05-17 11:43:00,
2013-05-17 04:45:00,54.5,50.7,29.53,SW,231,0.0,0.0,87,0.00,,---,0.00,VWS V13.01,2013-05-17 11:45:00,
2013-05-17 04:46:00,54.5,50.7,29.53,SW,231,0.0,0.0,87,0.00,,---,0.00,VWS V13.01,2013-05-17 11:46:00,
2013-05-17 04:48:00,54.1,50.4,29.53,SW,231,0.0,0.0,87,0.00,,---,0.00,VWS V13.01,2013-05-17 11:48:00,
2013-05-17 04:50:00,54.1,50.4,29.53,SSW,193,2.7,2.7,87,0.00,,---,0.00,VWS V13.01,2013-05-17 11:50:00,
2013-05-17 04:51:00,54.1,50.4,29.53,SSW,193,2.7,2.7,87,0.00,,---,0.00,VWS V13.01,2013-05-17 11:51:00,
2013-05-17 04:53:00,54.1,50.4,29.53,SSW,193,2.7,2.7,87,0.00,,---,0.00,VWS V13.01,2013-05-17 11:53:00,
2013-05-17 04:55:00,54.1,50.4,29.53,WSW,241,2.7,2.7,87,0.00,,---,0.00,VWS V13.01,2013-05-17 11:55:00,
2013-05-17 04:56:00,53.8,50.3,29.53,South,172,0.0,2.7,88,0.00,,---,0.00,VWS V13.01,2013-05-17 11:56:00,
2013-05-17 04:58:00,53.8,50.3,29.53,South,172,0.0,0.0,88,0.00,,---,0.00,VWS V13.01,2013-05-17 11:58:00,
2013-05-17 05:00:00,53.8,50.3,29.53,NW,307,0.0,0.0,88,0.00,,---,0.00,VWS V13.01,2013-05-17 12:00:00,
2013-05-17 05:01:00,53.8,50.3,29.53,SW,227,0.0,0.0,88,0.00,,---,0.00,VWS V13.01,2013-05-17 12:01:00,
2013-05-17 05:03:00,53.8,50.3,29.53,SW,214,0.0,0.0,88,0.00,,---,0.00,VWS V13.01,2013-05-17 12:03:00,
2013-05-17 05:05:00,53.8,50.3,29.53,SW,214,0.0,0.0,88,0.00,,---,0.00,VWS V13.01,2013-05-17 12:05:00,
2013-05-17 05:06:00,53.4,50.3,29.53,SW,214,0.0,0.0,89,0.00,,---,0.00,VWS V13.01,2013-05-17 12:06:00,
2013-05-17 05:07:00,53.4,50.3,29.53,SW,214,0.0,0.0,89,0.00,,---,0.00,VWS V13.01,2013-05-17 12:07:00,
2013-05-17 05:08:00,53.4,50.3,29.53,SW,214,0.0,0.0,89,0.00,,---,0.00,VWS V13.01,2013-05-17 12:08:00,
2013-05-17 05:10:00,53.4,50.3,29.53,SW,214,0.0,0.0,89,0.00,,---,0.00,VWS V13.01,2013-05-17 12:10:00,
2013-05-17 05:11:00,53.4,50.3,29.53,SW,214,0.0,0.0,89,0.00,,---,0.00,VWS V13.01,2013-05-17 12:11:00,
2013-05-17 05:12:00,53.4,50.3,29.53,SW,214,0.0,0.0,89,0.00,,---,0.00,VWS V13.01,2013-05-17 12:12:00,
2013-05-17 05:14:00,53.8,50.6,29.53,SW,214,0.0,0.0,89,0.00,,---,0.00,VWS V13.01,2013-05-17 12:14:00,
2013-05-17 05:15:00,53.6,50.4,29.53,SW,214,0.0,0.0,89,0.00,,---,0.00,VWS V13.01,2013-05-17 12:15:00,
2013-05-17 05:16:00,53.6,50.4,29.53,WSW,238,0.0,0.0,89,0.00,,---,0.00,VWS V13.01,2013-05-17 12:16:00,
2013-05-17 05:17:00,53.6,50.4,29.53,WSW,238,0.0,0.0,89,0.00,,---,0.00,VWS V13.01,2013-05-17 12:17:00,
2013-05-17 05:19:00,53.6,50.4,29.53,WSW,238,0.0,0.0,89,0.00,,---,0.00,VWS V13.01,2013-05-17 12:19:00,
2013-05-17 05:20:00,53.6,50.4,29.53,SE,141,0.0,0.0,89,0.00,,---,0.00,VWS V13.01,2013-05-17 12:20:00,
2013-05-17 05:21:00,53.6,50.4,29.53,SE,143,0.0,0.0,89,0.00,,---,0.00,VWS V13.01,2013-05-17 12:21:00,
2013-05-17 05:22:00,53.6,50.4,29.53,SE,143,0.0,0.0,89,0.00,,---,0.00,VWS V13.01,2013-05-17 12:22:00,
2013-05-17 05:24:00,53.6,50.4,29.53,SE,143,0.0,0.0,89,0.00,,---,0.00,VWS V13.01,2013-05-17 12:24:00,
2013-05-17 05:25:00,53.6,50.4,29.53,SE,143,0.0,0.0,89,0.00,,---,0.00,VWS V13.01,2013-05-17 12:25:00,
2013-05-17 05:26:00,53.6,50.4,29.53,SE,143,0.0,0.0,89,0.00,,---,0.00,VWS V13.01,2013-05-17 12:26:00,
2013-05-17 05:27:00,53.6,50.4,29.53,SE,143,0.0,0.0,89,0.00,,---,0.00,VWS V13.01,2013-05-17 12:27:00,
2013-05-17 05:29:00,53.6,50.4,29.53,SE,143,0.0,0.0,89,0.00,,---,0.00,VWS V13.01,2013-05-17 12:29:00,
2013-05-17 05:31:00,53.6,50.4,29.53,SE,143,0.0,0.0,89,0.00,,---,0.00,VWS V13.01,2013-05-17 12:31:00,
2013-05-17 05:32:00,53.6,50.4,29.53,SE,143,0.0,0.0,89,0.00,,---,0.00,VWS V13.01,2013-05-17 12:32:00,
2013-05-17 05:34:00,54.0,50.8,29.53,SE,144,0.0,0.0,89,0.00,,---,0.00,VWS V13.01,2013-05-17 12:34:00,
2013-05-17 05:35:00,54.0,50.8,29.53,SE,144,0.0,0.0,89,0.00,,---,0.00,VWS V13.01,2013-05-17 12:35:00,
2013-05-17 05:36:00,54.0,50.8,29.53,SE,144,0.0,0.0,89,0.00,,---,0.00,VWS V13.01,2013-05-17 12:36:00,
2013-05-17 05:38:00,54.0,50.8,29.53,SE,144,0.0,0.0,89,0.00,,---,0.00,VWS V13.01,2013-05-17 12:38:00,
2013-05-17 05:39:00,54.0,50.8,29.53,SE,144,0.0,0.0,89,0.00,,---,0.00,VWS V13.01,2013-05-17 12:39:00,
2013-05-17 05:41:00,54.0,50.8,29.53,SE,144,0.0,0.0,89,0.00,,---,0.00,VWS V13.01,2013-05-17 12:41:00,
2013-05-17 05:43:00,54.1,51.0,29.53,SE,144,0.0,0.0,89,0.00,,---,0.00,VWS V13.01,2013-05-17 12:43:00,
2013-05-17 05:45:00,54.1,51.0,29.53,SE,144,0.0,0.0,89,0.00,,---,0.00,VWS V13.01,2013-05-17 12:45:00,
2013-05-17 05:46:00,54.1,51.0,29.53,SE,144,0.0,0.0,89,0.00,,---,0.00,VWS V13.01,2013-05-17 12:46:00,
2013-05-17 05:48:00,54.1,51.0,29.53,SE,144,0.0,0.0,89,0.00,,---,0.00,VWS V13.01,2013-05-17 12:48:00,
2013-05-17 05:50:00,54.1,51.0,29.53,SE,144,0.0,0.0,89,0.00,,---,0.00,VWS V13.01,2013-05-17 12:50:00,
2013-05-17 05:51:00,54.1,51.0,29.53,SE,144,0.0,0.0,89,0.00,,---,0.00,VWS V13.01,2013-05-17 12:51:00,
2013-05-17 05:53:00,54.1,51.0,29.53,SE,144,0.0,0.0,89,0.00,,---,0.00,VWS V13.01,2013-05-17 12:53:00,
2013-05-17 05:55:00,54.1,51.0,29.53,SE,144,0.0,0.0,89,0.00,,---,0.00,VWS V13.01,2013-05-17 12:55:00,
2013-05-17 05:56:00,54.1,51.0,29.53,SE,144,0.0,0.0,89,0.00,,---,0.00,VWS V13.01,2013-05-17 12:56:00,
2013-05-17 05:58:00,54.1,51.0,29.53,SE,144,0.0,0.0,89,0.00,,---,0.00,VWS V13.01,2013-05-17 12:58:00,
2013-05-17 06:00:00,54.1,51.0,29.53,SE,144,0.0,0.0,89,0.00,,---,0.00,VWS V13.01,2013-05-17 13:00:00,
2013-05-17 06:01:00,53.8,50.6,29.53,SE,144,0.0,0.0,89,0.00,,---,0.00,VWS V13.01,2013-05-17 13:01:00,
2013-05-17 06:03:00,53.8,50.6,29.53,SE,144,0.0,0.0,89,0.00,,---,0.00,VWS V13.01,2013-05-17 13:03:00,
2013-05-17 06:05:00,53.8,50.6,29.53,SE,144,0.0,0.0,89,0.00,,---,0.00,VWS V13.01,2013-05-17 13:05:00,
2013-05-17 06:06:00,53.8,50.6,29.53,SE,144,0.0,0.0,89,0.00,,---,0.00,VWS V13.01,2013-05-17 13:06:00,
2013-05-17 06:07:00,53.8,50.6,29.53,SE,144,0.0,0.0,89,0.00,,---,0.00,VWS V13.01,2013-05-17 13:07:00,
2013-05-17 06:08:00,53.8,50.6,29.53,SE,144,0.0,0.0,89,0.00,,---,0.00,VWS V13.01,2013-05-17 13:08:00,
2013-05-17 06:10:00,54.3,51.2,29.53,SE,144,0.0,0.0,89,0.00,,---,0.00,VWS V13.01,2013-05-17 13:10:00,
2013-05-17 06:12:00,54.3,51.2,29.53,SE,144,0.0,0.0,89,0.00,,---,0.00,VWS V13.01,2013-05-17 13:12:00,
2013-05-17 06:13:00,54.3,51.2,29.53,SE,144,0.0,0.0,89,0.00,,---,0.00,VWS V13.01,2013-05-17 13:13:00,
2013-05-17 06:15:00,54.3,51.2,29.53,SE,144,0.0,0.0,89,0.00,,---,0.00,VWS V13.01,2013-05-17 13:15:00,
2013-05-17 06:16:00,54.3,51.2,29.53,SE,144,0.0,0.0,89,0.00,,---,0.00,VWS V13.01,2013-05-17 13:16:00,
2013-05-17 06:17:00,54.3,51.2,29.53,SE,144,0.0,0.0,89,0.00,,---,0.00,VWS V13.01,2013-05-17 13:17:00,
2013-05-17 06:18:00,54.0,50.8,29.53,SE,144,0.0,0.0,89,0.04,,---,0.04,VWS V13.01,2013-05-17 13:18:00,
2013-05-17 06:20:00,54.0,50.8,29.53,SE,144,0.0,0.0,89,0.04,,---,0.04,VWS V13.01,2013-05-17 13:20:00,
2013-05-17 06:22:00,54.0,50.8,29.53,SE,144,0.0,0.0,89,0.04,,---,0.04,VWS V13.01,2013-05-17 13:22:00,
2013-05-17 06:23:00,54.0,50.8,29.53,SE,144,0.0,0.0,89,0.04,,---,0.04,VWS V13.01,2013-05-17 13:23:00,
2013-05-17 06:25:00,54.0,50.8,29.53,SE,144,0.0,0.0,89,0.04,,---,0.04,VWS V13.01,2013-05-17 13:25:00,
2013-05-17 06:27:00,54.0,50.8,29.53,SE,144,0.0,0.0,89,0.04,,---,0.04,VWS V13.01,2013-05-17 13:27:00,
2013-05-17 06:28:00,54.0,50.8,29.53,SE,144,0.0,0.0,89,0.04,,---,0.04,VWS V13.01,2013-05-17 13:28:00,
2013-05-17 06:29:00,54.0,50.8,29.53,SE,137,0.0,0.0,89,0.04,,---,0.04,VWS V13.01,2013-05-17 13:29:00,
2013-05-17 06:31:00,54.0,50.8,29.53,ESE,111,0.0,0.0,89,0.04,,---,0.04,VWS V13.01,2013-05-17 13:31:00,
2013-05-17 06:32:00,54.0,50.8,29.53,ESE,111,0.0,0.0,89,0.04,,---,0.04,VWS V13.01,2013-05-17 13:32:00,
2013-05-17 06:33:00,54.0,50.8,29.53,ESE,111,0.0,0.0,89,0.04,,---,0.04,VWS V13.01,2013-05-17 13:33:00,
2013-05-17 06:34:00,54.0,50.8,29.53,WSW,238,0.0,0.0,89,0.04,,---,0.04,VWS V13.01,2013-05-17 13:34:00,
2013-05-17 06:36:00,54.0,50.8,29.53,WSW,238,0.0,0.0,89,0.04,,---,0.04,VWS V13.01,2013-05-17 13:36:00,
2013-05-17 06:37:00,53.8,50.9,29.53,WSW,238,0.0,0.0,90,0.04,,---,0.04,VWS V13.01,2013-05-17 13:37:00,
2013-05-17 06:38:00,53.8,50.9,29.53,WSW,238,0.0,0.0,90,0.04,,---,0.04,VWS V13.01,2013-05-17 13:38:00,
2013-05-17 06:39:00,53.8,50.9,29.53,WSW,238,0.0,0.0,90,0.04,,---,0.04,VWS V13.01,2013-05-17 13:39:00,
2013-05-17 06:41:00,53.8,50.9,29.53,WSW,238,0.0,0.0,90,0.04,,---,0.04,VWS V13.01,2013-05-17 13:41:00,
2013-05-17 06:42:00,53.8,50.9,29.53,WSW,238,0.0,0.0,90,0.04,,---,0.04,VWS V13.01,2013-05-17 13:42:00,
2013-05-17 06:43:00,53.8,50.9,29.53,WSW,238,0.0,0.0,90,0.04,,---,0.04,VWS V13.01,2013-05-17 13:43:00,
2013-05-17 06:45:00,53.8,50.9,29.53,WSW,238,0.0,0.0,90,0.04,,---,0.04,VWS V13.01,2013-05-17 13:45:00,
2013-05-17 06:46:00,54.0,50.8,29.53,WSW,238,0.0,0.0,89,0.04,,---,0.04,VWS V13.01,2013-05-17 13:46:00,
2013-05-17 06:47:00,54.0,50.8,29.53,WSW,238,0.0,0.0,89,0.04,,---,0.04,VWS V13.01,2013-05-17 13:47:00,
2013-05-17 06:48:00,54.0,50.8,29.53,WSW,238,0.0,0.0,89,0.04,,---,0.04,VWS V13.01,2013-05-17 13:48:00,
2013-05-17 06:50:00,54.0,50.8,29.53,WSW,238,0.0,0.0,89,0.04,,---,0.04,VWS V13.01,2013-05-17 13:50:00,
2013-05-17 06:51:00,54.0,50.8,29.53,WSW,238,0.0,0.0,89,0.04,,---,0.04,VWS V13.01,2013-05-17 13:51:00,
2013-05-17 06:52:00,54.0,50.8,29.53,WSW,238,0.0,0.0,89,0.04,,---,0.04,VWS V13.01,2013-05-17 13:52:00,
2013-05-17 06:53:00,54.0,50.8,29.53,WSW,238,0.0,0.0,89,0.04,,---,0.04,VWS V13.01,2013-05-17 13:53:00,
2013-05-17 06:55:00,54.0,51.1,29.53,WSW,238,0.0,0.0,90,0.04,,---,0.04,VWS V13.01,2013-05-17 13:55:00,
2013-05-17 06:56:00,54.0,51.1,29.53,WSW,238,0.0,0.0,90,0.04,,---,0.04,VWS V13.01,2013-05-17 13:56:00,
2013-05-17 06:57:00,54.0,51.1,29.53,WSW,238,0.0,0.0,90,0.04,,---,0.04,VWS V13.01,2013-05-17 13:57:00,
2013-05-17 06:58:00,54.0,51.1,29.53,WSW,238,0.0,0.0,90,0.04,,---,0.04,VWS V13.01,2013-05-17 13:58:00,
2013-05-17 06:59:00,54.0,51.1,29.53,WSW,238,0.0,0.0,90,0.04,,---,0.04,VWS V13.01,2013-05-17 13:59:00,
2013-05-17 07:00:00,54.0,51.1,29.53,WSW,238,0.0,0.0,90,0.04,,---,0.04,VWS V13.01,2013-05-17 14:00:00,
2013-05-17 07:01:00,54.0,51.1,29.53,WSW,238,0.0,0.0,90,0.04,,---,0.04,VWS V13.01,2013-05-17 14:01:00,
2013-05-17 07:02:00,54.0,51.1,29.53,WSW,238,0.0,0.0,90,0.04,,---,0.04,VWS V13.01,2013-05-17 14:02:00,
2013-05-17 07:03:00,54.0,51.1,29.53,WSW,238,0.0,0.0,90,0.04,,---,0.04,VWS V13.01,2013-05-17 14:03:00,
2013-05-17 07:04:00,54.0,51.1,29.53,WSW,238,0.0,0.0,90,0.04,,---,0.04,VWS V13.01,2013-05-17 14:04:00,
2013-05-17 07:05:00,54.0,51.1,29.53,WSW,238,0.0,0.0,90,0.04,,---,0.04,VWS V13.01,2013-05-17 14:05:00,
2013-05-17 07:06:00,54.0,51.1,29.53,WSW,238,0.0,0.0,90,0.04,,---,0.04,VWS V13.01,2013-05-17 14:06:00,
2013-05-17 07:08:00,54.0,51.1,29.53,WSW,238,0.0,0.0,90,0.04,,---,0.04,VWS V13.01,2013-05-17 14:08:00,
2013-05-17 07:09:00,54.0,51.1,29.53,WSW,238,0.0,0.0,90,0.04,,---,0.04,VWS V13.01,2013-05-17 14:09:00,
2013-05-17 07:10:00,54.0,51.1,29.53,WSW,238,0.0,2.7,90,0.04,,---,0.04,VWS V13.01,2013-05-17 14:10:00,
2013-05-17 07:11:00,54.0,51.1,29.53,WSW,238,0.0,0.0,90,0.04,,---,0.04,VWS V13.01,2013-05-17 14:11:00,
2013-05-17 07:13:00,54.1,51.6,29.53,WSW,238,2.7,2.7,91,0.04,,---,0.04,VWS V13.01,2013-05-17 14:13:00,
2013-05-17 07:14:00,54.1,51.6,29.53,WSW,238,2.7,2.7,91,0.04,,---,0.04,VWS V13.01,2013-05-17 14:14:00,
2013-05-17 07:15:00,54.1,51.6,29.53,WSW,238,0.0,2.7,91,0.04,,---,0.04,VWS V13.01,2013-05-17 14:15:00,
2013-05-17 07:16:00,54.1,51.6,29.53,WSW,238,2.2,2.2,91,0.04,,---,0.04,VWS V13.01,2013-05-17 14:16:00,
2013-05-17 07:18:00,54.1,51.6,29.53,WSW,238,2.2,2.2,91,0.04,,---,0.04,VWS V13.01,2013-05-17 14:18:00,
2013-05-17 07:19:00,54.1,51.6,29.53,NNE,32,0.0,0.0,91,0.04,,---,0.04,VWS V13.01,2013-05-17 14:19:00,
2013-05-17 07:20:00,54.1,51.6,29.53,NNE,32,0.0,0.0,91,0.00,,---,0.04,VWS V13.01,2013-05-17 14:20:00,
2013-05-17 07:21:00,54.1,51.6,29.53,NNE,32,0.0,0.0,91,0.00,,---,0.04,VWS V13.01,2013-05-17 14:21:00,
2013-05-17 07:23:00,54.1,51.6,29.53,North,11,0.0,0.0,91,0.00,,---,0.04,VWS V13.01,2013-05-17 14:23:00,
2013-05-17 07:24:00,54.1,51.6,29.53,North,11,0.0,0.0,91,0.00,,---,0.04,VWS V13.01,2013-05-17 14:24:00,
2013-05-17 07:25:00,54.1,51.6,29.53,WSW,242,3.1,3.1,91,0.00,,---,0.04,VWS V13.01,2013-05-17 14:25:00,
2013-05-17 07:26:00,54.1,51.6,29.53,WSW,242,3.1,3.1,91,0.00,,---,0.04,VWS V13.01,2013-05-17 14:26:00,
2013-05-17 07:28:00,54.1,51.6,29.53,WSW,242,0.0,3.1,91,0.00,,---,0.04,VWS V13.01,2013-05-17 14:28:00,
2013-05-17 07:29:00,54.1,51.6,29.53,WSW,242,0.0,0.0,91,0.00,,---,0.04,VWS V13.01,2013-05-17 14:29:00,
2013-05-17 07:30:00,54.1,51.6,29.53,WSW,242,0.0,0.0,91,0.00,,---,0.04,VWS V13.01,2013-05-17 14:30:00,
2013-05-17 07:31:00,54.3,51.8,29.53,WSW,242,0.0,0.0,91,0.00,,---,0.04,VWS V13.01,2013-05-17 14:31:00,
2013-05-17 07:33:00,54.3,51.8,29.53,SW,223,0.0,0.0,91,0.00,,---,0.04,VWS V13.01,2013-05-17 14:33:00,
2013-05-17 07:34:00,54.3,51.8,29.53,WSW,250,0.0,0.0,91,0.00,,---,0.04,VWS V13.01,2013-05-17 14:34:00,
2013-05-17 07:35:00,54.3,51.8,29.53,WSW,250,0.0,0.0,91,0.00,,---,0.04,VWS V13.01,2013-05-17 14:35:00,
2013-05-17 07:36:00,54.3,51.8,29.53,WSW,250,0.0,0.0,91,0.00,,---,0.04,VWS V13.01,2013-05-17 14:36:00,
2013-05-17 07:38:00,54.3,51.8,29.53,WSW,250,0.0,0.0,91,0.00,,---,0.04,VWS V13.01,2013-05-17 14:38:00,
2013-05-17 07:40:00,54.3,51.8,29.53,WSW,250,0.0,0.0,91,0.00,,---,0.04,VWS V13.01,2013-05-17 14:40:00,
2013-05-17 07:41:00,54.3,51.8,29.53,WSW,250,0.0,0.0,91,0.00,,---,0.04,VWS V13.01,2013-05-17 14:41:00,
2013-05-17 07:43:00,54.3,51.8,29.53,SW,229,0.0,2.2,91,0.00,,---,0.04,VWS V13.01,2013-05-17 14:43:00,
2013-05-17 07:45:00,54.3,51.8,29.53,SW,229,0.0,0.0,91,0.00,,---,0.04,VWS V13.01,2013-05-17 14:45:00,
2013-05-17 07:47:00,54.3,51.8,29.53,SW,229,0.0,0.0,91,0.00,,---,0.04,VWS V13.01,2013-05-17 14:47:00,
2013-05-17 07:48:00,54.3,51.8,29.53,SW,229,0.0,0.0,91,0.00,,---,0.04,VWS V13.01,2013-05-17 14:48:00,
2013-05-17 07:50:00,54.5,51.9,29.56,SW,229,0.0,0.0,91,0.00,,---,0.04,VWS V13.01,2013-05-17 14:50:00,
2013-05-17 07:52:00,54.5,51.9,29.56,SW,229,0.0,0.0,91,0.00,,---,0.04,VWS V13.01,2013-05-17 14:52:00,
2013-05-17 07:53:00,54.5,51.9,29.56,SW,229,0.0,0.0,91,0.00,,---,0.04,VWS V13.01,2013-05-17 14:53:00,
2013-05-17 07:55:00,54.5,51.9,29.56,SW,229,0.0,0.0,91,0.00,,---,0.04,VWS V13.01,2013-05-17 14:55:00,
2013-05-17 07:56:00,54.5,51.9,29.56,SW,229,0.0,0.0,91,0.00,,---,0.04,VWS V13.01,2013-05-17 14:56:00,
2013-05-17 07:57:00,54.5,51.9,29.56,SW,229,0.0,0.0,91,0.00,,---,0.04,VWS V13.01,2013-05-17 14:57:00,
2013-05-17 07:58:00,54.7,52.1,29.56,WSW,239,0.0,0.0,91,0.00,,---,0.04,VWS V13.01,2013-05-17 14:58:00,
2013-05-17 08:00:00,54.7,52.1,29.56,WSW,239,0.0,0.0,91,0.00,,---,0.04,VWS V13.01,2013-05-17 15:00:00,
2013-05-17 08:01:00,54.7,52.1,29.56,WSW,239,0.0,0.0,91,0.00,,---,0.04,VWS V13.01,2013-05-17 15:01:00,
2013-05-17 08:02:00,54.7,52.1,29.56,WSW,239,0.0,0.0,91,0.00,,---,0.04,VWS V13.01,2013-05-17 15:02:00,
2013-05-17 08:03:00,54.7,52.1,29.56,WSW,239,0.0,0.0,91,0.00,,---,0.04,VWS V13.01,2013-05-17 15:03:00,
2013-05-17 08:06:00,54.7,52.1,29.56,SW,232,0.0,0.0,91,0.00,,---,0.04,VWS V13.01,2013-05-17 15:06:00,
2013-05-17 08:07:00,54.7,52.1,29.56,SW,232,0.0,0.0,91,0.00,,---,0.04,VWS V13.01,2013-05-17 15:07:00,
2013-05-17 08:08:00,54.9,52.3,29.56,WSW,241,2.2,2.2,91,0.00,,---,0.04,VWS V13.01,2013-05-17 15:08:00,
2013-05-17 08:11:00,54.9,52.3,29.56,WSW,239,0.0,2.2,91,0.00,,---,0.04,VWS V13.01,2013-05-17 15:11:00,
2013-05-17 08:12:00,54.9,52.3,29.56,WSW,239,0.0,0.0,91,0.00,,---,0.04,VWS V13.01,2013-05-17 15:12:00,
2013-05-17 08:14:00,54.9,52.3,29.56,SW,232,0.0,0.0,91,0.00,,---,0.04,VWS V13.01,2013-05-17 15:14:00,
2013-05-17 08:16:00,54.9,52.3,29.56,SW,232,0.0,0.0,91,0.00,,---,0.04,VWS V13.01,2013-05-17 15:16:00,
2013-05-17 08:17:00,55.0,52.5,29.56,SW,232,0.0,0.0,91,0.00,,---,0.04,VWS V13.01,2013-05-17 15:17:00,
2013-05-17 08:19:00,55.0,52.5,29.56,West,262,0.0,0.0,91,0.00,,---,0.04,VWS V13.01,2013-05-17 15:19:00,
2013-05-17 08:21:00,55.0,52.5,29.56,NE,45,0.0,0.0,91,0.00,,---,0.04,VWS V13.01,2013-05-17 15:21:00,
2013-05-17 08:22:00,55.0,52.5,29.56,SSW,197,2.2,2.2,91,0.00,,---,0.04,VWS V13.01,2013-05-17 15:22:00,
2013-05-17 08:24:00,55.0,52.5,29.56,SSW,197,0.0,0.0,91,0.00,,---,0.04,VWS V13.01,2013-05-17 15:24:00,
2013-05-17 08:26:00,55.2,52.6,29.56,SSW,197,0.0,0.0,91,0.00,,---,0.04,VWS V13.01,2013-05-17 15:26:00,
2013-05-17 08:27:00,55.2,52.6,29.56,WSW,249,3.1,3.6,91,0.00,,---,0.04,VWS V13.01,2013-05-17 15:27:00,
2013-05-17 08:29:00,55.2,52.6,29.56,WSW,238,0.0,0.0,91,0.00,,---,0.04,VWS V13.01,2013-05-17 15:29:00,
2013-05-17 08:31:00,55.2,52.6,29.56,WSW,238,0.0,0.0,91,0.00,,---,0.04,VWS V13.01,2013-05-17 15:31:00,
2013-05-17 08:32:00,55.2,52.6,29.56,SW,234,0.0,0.0,91,0.00,,---,0.04,VWS V13.01,2013-05-17 15:32:00,
2013-05-17 08:34:00,55.2,52.6,29.56,WSW,245,0.0,0.0,91,0.00,,---,0.04,VWS V13.01,2013-05-17 15:34:00,
2013-05-17 08:36:00,55.2,52.3,29.56,SW,233,0.0,0.0,90,0.00,,---,0.04,VWS V13.01,2013-05-17 15:36:00,
2013-05-17 08:37:00,55.2,52.3,29.56,SW,233,0.0,0.0,90,0.00,,---,0.04,VWS V13.01,2013-05-17 15:37:00,
2013-05-17 08:38:00,55.2,52.3,29.56,WSW,253,2.7,2.7,90,0.00,,---,0.04,VWS V13.01,2013-05-17 15:38:00,
2013-05-17 08:40:00,55.2,52.3,29.56,SE,138,0.0,2.7,90,0.00,,---,0.04,VWS V13.01,2013-05-17 15:40:00,
2013-05-17 08:41:00,55.2,52.3,29.56,SW,236,5.8,5.8,90,0.00,,---,0.04,VWS V13.01,2013-05-17 15:41:00,
2013-05-17 08:42:00,55.2,52.3,29.56,SW,236,5.8,5.8,90,0.00,,---,0.04,VWS V13.01,2013-05-17 15:42:00,
2013-05-17 08:43:00,55.2,52.3,29.56,SW,236,5.8,5.8,90,0.00,,---,0.04,VWS V13.01,2013-05-17 15:43:00,
2013-05-17 08:45:00,55.6,52.7,29.56,SW,236,5.8,5.8,90,0.00,,---,0.04,VWS V13.01,2013-05-17 15:45:00,
2013-05-17 08:46:00,55.6,52.7,29.53,SW,236,5.8,5.8,90,0.00,,---,0.04,VWS V13.01,2013-05-17 15:46:00,
2013-05-17 08:47:00,55.6,52.7,29.53,WSW,241,2.2,2.2,90,0.00,,---,0.04,VWS V13.01,2013-05-17 15:47:00,
2013-05-17 08:48:00,55.6,52.7,29.53,WSW,241,2.2,2.2,90,0.00,,---,0.04,VWS V13.01,2013-05-17 15:48:00,
2013-05-17 08:50:00,55.6,52.7,29.53,WSW,246,0.0,2.7,90,0.00,,---,0.04,VWS V13.01,2013-05-17 15:50:00,
2013-05-17 08:51:00,55.6,52.7,29.53,WSW,246,0.0,0.0,90,0.00,,---,0.04,VWS V13.01,2013-05-17 15:51:00,
2013-05-17 08:52:00,55.6,52.7,29.53,WSW,246,0.0,0.0,90,0.00,,---,0.04,VWS V13.01,2013-05-17 15:52:00,
2013-05-17 08:53:00,55.9,52.8,29.53,West,269,2.7,2.7,89,0.00,,---,0.04,VWS V13.01,2013-05-17 15:53:00,
2013-05-17 08:55:00,55.9,52.8,29.53,West,269,0.0,0.0,89,0.00,,---,0.04,VWS V13.01,2013-05-17 15:55:00,
2013-05-17 08:56:00,55.9,52.8,29.53,SW,234,2.7,2.7,89,0.00,,---,0.04,VWS V13.01,2013-05-17 15:56:00,
2013-05-17 08:57:00,55.9,52.8,29.53,SW,234,2.7,2.7,89,0.00,,---,0.04,VWS V13.01,2013-05-17 15:57:00,
2013-05-17 08:58:00,55.9,52.8,29.53,SW,234,2.7,2.7,89,0.00,,---,0.04,VWS V13.01,2013-05-17 15:58:00,
2013-05-17 09:00:00,55.9,52.8,29.53,SSW,207,2.7,2.7,89,0.00,,---,0.04,VWS V13.01,2013-05-17 16:00:00,
2013-05-17 09:01:00,55.9,52.8,29.53,SSW,203,2.2,2.7,89,0.00,,---,0.04,VWS V13.01,2013-05-17 16:01:00,
2013-05-17 09:02:00,55.9,52.8,29.53,SSW,203,0.0,2.7,89,0.00,,---,0.04,VWS V13.01,2013-05-17 16:02:00,
2013-05-17 09:03:00,56.3,52.8,29.53,SSW,203,0.0,0.0,88,0.00,,---,0.04,VWS V13.01,2013-05-17 16:03:00,
2013-05-17 09:05:00,56.3,52.8,29.53,SW,234,0.0,0.0,88,0.00,,---,0.04,VWS V13.01,2013-05-17 16:05:00,
2013-05-17 09:07:00,56.3,52.8,29.53,SW,234,0.0,0.0,88,0.00,,---,0.04,VWS V13.01,2013-05-17 16:07:00,
2013-05-17 09:08:00,56.3,52.8,29.53,SW,234,0.0,0.0,88,0.00,,---,0.04,VWS V13.01,2013-05-17 16:08:00,
2013-05-17 09:11:00,56.3,52.8,29.53,WSW,253,3.1,3.1,88,0.00,,---,0.04,VWS V13.01,2013-05-17 16:11:00,
2013-05-17 09:12:00,56.7,52.8,29.53,WSW,253,3.1,3.1,87,0.00,,---,0.04,VWS V13.01,2013-05-17 16:12:00,
2013-05-17 09:13:00,56.7,52.8,29.53,WSW,253,3.1,3.1,87,0.00,,---,0.04,VWS V13.01,2013-05-17 16:13:00,
2013-05-17 09:16:00,56.7,52.8,29.53,West,268,2.7,2.7,87,0.00,,---,0.04,VWS V13.01,2013-05-17 16:16:00,
2013-05-17 09:17:00,56.7,52.8,29.53,West,265,0.0,2.7,87,0.00,,---,0.04,VWS V13.01,2013-05-17 16:17:00,
2013-05-17 09:18:00,56.7,52.8,29.56,West,265,0.0,0.0,87,0.00,,---,0.04,VWS V13.01,2013-05-17 16:18:00,
2013-05-17 09:21:00,56.5,52.0,29.56,WSW,243,0.0,0.0,85,0.00,,---,0.04,VWS V13.01,2013-05-17 16:21:00,
2013-05-17 09:22:00,56.5,52.0,29.56,SE,128,2.2,2.2,85,0.00,,---,0.04,VWS V13.01,2013-05-17 16:22:00,
2013-05-17 09:23:00,56.5,52.0,29.56,SE,133,0.0,2.2,85,0.00,,---,0.04,VWS V13.01,2013-05-17 16:23:00,
2013-05-17 09:24:00,56.5,52.0,29.56,SE,133,0.0,0.0,85,0.00,,---,0.04,VWS V13.01,2013-05-17 16:24:00,
2013-05-17 09:26:00,56.5,52.0,29.56,SE,133,0.0,0.0,85,0.00,,---,0.04,VWS V13.01,2013-05-17 16:26:00,
2013-05-17 09:27:00,56.5,52.0,29.56,SW,229,4.9,4.9,85,0.00,,---,0.04,VWS V13.01,2013-05-17 16:27:00,
2013-05-17 09:28:00,56.5,52.0,29.56,SSW,192,0.0,4.9,85,0.00,,---,0.04,VWS V13.01,2013-05-17 16:28:00,
2013-05-17 09:29:00,56.5,52.0,29.56,SSW,192,0.0,0.0,85,0.00,,---,0.04,VWS V13.01,2013-05-17 16:29:00,
2013-05-17 09:31:00,56.7,52.2,29.53,SSW,192,0.0,0.0,85,0.00,,---,0.04,VWS V13.01,2013-05-17 16:31:00,
2013-05-17 09:32:00,56.7,52.2,29.53,SSE,162,0.0,0.0,85,0.00,,---,0.04,VWS V13.01,2013-05-17 16:32:00,
2013-05-17 09:33:00,56.7,52.2,29.53,SSE,162,0.0,0.0,85,0.00,,---,0.04,VWS V13.01,2013-05-17 16:33:00,
2013-05-17 09:34:00,56.7,52.2,29.53,SSE,162,0.0,0.0,85,0.00,,---,0.04,VWS V13.01,2013-05-17 16:34:00,
2013-05-17 09:37:00,56.7,52.2,29.53,SW,220,5.4,5.4,85,0.00,,---,0.04,VWS V13.01,2013-05-17 16:37:00,
2013-05-17 09:38:00,56.7,52.2,29.53,SW,220,5.4,5.4,85,0.00,,---,0.04,VWS V13.01,2013-05-17 16:38:00,
2013-05-17 09:39:00,56.8,52.1,29.53,SW,220,5.4,5.4,84,0.00,,---,0.04,VWS V13.01,2013-05-17 16:39:00,
2013-05-17 09:42:00,56.8,52.1,29.53,West,261,3.6,3.6,84,0.00,,---,0.04,VWS V13.01,2013-05-17 16:42:00,
2013-05-17 09:43:00,56.8,52.1,29.53,West,261,3.6,3.6,84,0.00,,---,0.04,VWS V13.01,2013-05-17 16:43:00,
2013-05-17 09:44:00,56.8,52.1,29.53,WSW,242,3.1,4.0,84,0.00,,---,0.04,VWS V13.01,2013-05-17 16:44:00,
2013-05-17 09:47:00,56.8,52.1,29.53,South,179,0.0,0.0,84,0.00,,---,0.04,VWS V13.01,2013-05-17 16:47:00,
2013-05-17 09:48:00,56.7,51.6,29.53,South,179,0.0,0.0,83,0.00,,---,0.04,VWS V13.01,2013-05-17 16:48:00,
2013-05-17 09:49:00,56.7,51.6,29.53,South,179,0.0,0.0,83,0.00,,---,0.04,VWS V13.01,2013-05-17 16:49:00,
2013-05-17 09:52:00,56.7,51.6,29.53,WSW,237,3.1,3.1,83,0.00,,---,0.04,VWS V13.01,2013-05-17 16:52:00,
2013-05-17 09:53:00,56.7,51.6,29.53,WSW,237,3.1,3.1,83,0.00,,---,0.04,VWS V13.01,2013-05-17 16:53:00,
2013-05-17 09:54:00,56.7,51.6,29.53,SW,216,3.6,3.6,83,0.00,,---,0.04,VWS V13.01,2013-05-17 16:54:00,
2013-05-17 09:57:00,56.8,51.7,29.53,WSW,239,3.1,4.0,83,0.00,,---,0.04,VWS V13.01,2013-05-17 16:57:00,
2013-05-17 09:58:00,56.8,51.7,29.53,WSW,239,3.1,3.1,83,0.00,,---,0.04,VWS V13.01,2013-05-17 16:58:00,
2013-05-17 09:59:00,56.8,51.7,29.53,WSW,239,3.1,3.1,83,0.00,,---,0.04,VWS V13.01,2013-05-17 16:59:00,
2013-05-17 10:00:00,56.8,51.7,29.53,WSW,246,0.0,3.1,83,0.00,,---,0.04,VWS V13.01,2013-05-17 17:00:00,
2013-05-17 10:02:00,56.8,51.7,29.56,WSW,246,0.0,0.0,83,0.00,,---,0.04,VWS V13.01,2013-05-17 17:02:00,
2013-05-17 10:03:00,56.8,51.7,29.56,SSW,208,2.2,2.2,83,0.00,,---,0.04,VWS V13.01,2013-05-17 17:03:00,
2013-05-17 10:04:00,56.8,51.7,29.56,WSW,240,0.0,2.2,83,0.00,,---,0.04,VWS V13.01,2013-05-17 17:04:00,
2013-05-17 10:05:00,56.8,51.7,29.56,WSW,240,0.0,0.0,83,0.00,,---,0.04,VWS V13.01,2013-05-17 17:05:00,
2013-05-17 10:07:00,56.7,51.2,29.56,WSW,240,0.0,0.0,82,0.00,,---,0.04,VWS V13.01,2013-05-17 17:07:00,
2013-05-17 10:08:00,56.7,51.2,29.56,WSW,240,0.0,0.0,82,0.00,,---,0.04,VWS V13.01,2013-05-17 17:08:00,
2013-05-17 10:09:00,56.7,51.2,29.56,NNE,27,2.2,2.2,82,0.00,,---,0.04,VWS V13.01,2013-05-17 17:09:00,
2013-05-17 10:10:00,56.7,51.2,29.56,NNE,27,2.2,2.2,82,0.00,,---,0.04,VWS V13.01,2013-05-17 17:10:00,
2013-05-17 10:13:00,56.7,51.2,29.56,East,87,2.2,2.2,82,0.00,,---,0.04,VWS V13.01,2013-05-17 17:13:00,
2013-05-17 10:14:00,56.7,51.2,29.56,East,87,2.2,2.2,82,0.00,,---,0.04,VWS V13.01,2013-05-17 17:14:00,
2013-05-17 10:15:00,56.7,50.9,29.56,East,87,2.2,2.2,81,0.00,,---,0.04,VWS V13.01,2013-05-17 17:15:00,
2013-05-17 10:18:00,56.7,50.9,29.56,NNW,341,3.1,3.1,81,0.00,,---,0.04,VWS V13.01,2013-05-17 17:18:00,
2013-05-17 10:19:00,56.7,50.9,29.56,West,262,5.8,5.8,81,0.00,,---,0.04,VWS V13.01,2013-05-17 17:19:00,
2013-05-17 10:20:00,56.7,50.9,29.56,West,262,5.8,5.8,81,0.00,,---,0.04,VWS V13.01,2013-05-17 17:20:00,
2013-05-17 10:23:00,56.7,50.9,29.56,SW,227,3.6,3.6,81,0.00,,---,0.04,VWS V13.01,2013-05-17 17:23:00,
2013-05-17 10:24:00,56.7,50.6,29.56,SW,227,3.6,3.6,80,0.00,,---,0.04,VWS V13.01,2013-05-17 17:24:00,
2013-05-17 10:25:00,56.7,50.6,29.56,WSW,248,2.2,3.6,80,0.00,,---,0.04,VWS V13.01,2013-05-17 17:25:00,
2013-05-17 10:28:00,56.7,50.6,29.56,West,259,5.4,5.4,80,0.00,,---,0.04,VWS V13.01,2013-05-17 17:28:00,
2013-05-17 10:29:00,56.7,50.6,29.56,West,259,5.4,5.4,80,0.00,,---,0.04,VWS V13.01,2013-05-17 17:29:00,
2013-05-17 10:30:00,56.8,50.7,29.56,SSW,200,2.2,5.4,80,0.00,,---,0.04,VWS V13.01,2013-05-17 17:30:00,
2013-05-17 10:33:00,57.0,50.9,29.56,SW,225,3.1,3.1,80,0.00,,---,0.04,VWS V13.01,2013-05-17 17:33:00,
2013-05-17 10:34:00,57.0,50.9,29.56,SW,225,3.1,3.1,80,0.00,,---,0.04,VWS V13.01,2013-05-17 17:34:00,
2013-05-17 10:35:00,57.0,50.9,29.56,ENE,77,2.7,3.1,80,0.00,,---,0.04,VWS V13.01,2013-05-17 17:35:00,
2013-05-17 10:36:00,57.0,50.9,29.56,West,262,3.6,3.6,80,0.00,,---,0.04,VWS V13.01,2013-05-17 17:36:00,
2013-05-17 10:38:00,57.0,50.9,29.56,West,262,3.6,3.6,80,0.00,,---,0.04,VWS V13.01,2013-05-17 17:38:00,
2013-05-17 10:39:00,57.0,50.9,29.56,West,262,3.6,3.6,80,0.00,,---,0.04,VWS V13.01,2013-05-17 17:39:00,
2013-05-17 10:40:00,57.0,50.9,29.56,WSW,241,5.8,5.8,80,0.00,,---,0.04,VWS V13.01,2013-05-17 17:40:00,
2013-05-17 10:41:00,57.0,50.9,29.56,WSW,241,5.8,5.8,80,0.00,,---,0.04,VWS V13.01,2013-05-17 17:41:00,
2013-05-17 10:43:00,57.2,50.4,29.56,WSW,241,5.8,5.8,78,0.00,,---,0.04,VWS V13.01,2013-05-17 17:43:00,
2013-05-17 10:44:00,57.2,50.4,29.56,WSW,241,5.8,5.8,78,0.00,,---,0.04,VWS V13.01,2013-05-17 17:44:00,
2013-05-17 10:45:00,57.2,50.4,29.56,West,278,5.4,5.8,78,0.00,,---,0.04,VWS V13.01,2013-05-17 17:45:00,
2013-05-17 10:46:00,57.2,50.4,29.56,West,259,2.7,5.4,78,0.00,,---,0.04,VWS V13.01,2013-05-17 17:46:00,
2013-05-17 10:49:00,57.2,50.4,29.56,NNW,329,3.6,3.6,78,0.00,,---,0.04,VWS V13.01,2013-05-17 17:49:00,
2013-05-17 10:50:00,57.2,50.4,29.56,NNW,329,3.6,3.6,78,0.00,,---,0.04,VWS V13.01,2013-05-17 17:50:00,
2013-05-17 10:51:00,57.2,50.4,29.56,NNW,329,3.6,3.6,78,0.00,,---,0.04,VWS V13.01,2013-05-17 17:51:00,
2013-05-17 10:54:00,57.4,50.9,29.56,West,264,2.2,2.2,79,0.00,,---,0.04,VWS V13.01,2013-05-17 17:54:00,
2013-05-17 10:55:00,57.4,50.9,29.56,West,264,0.0,0.0,79,0.00,,---,0.04,VWS V13.01,2013-05-17 17:55:00,
2013-05-17 10:56:00,57.4,50.9,29.56,West,264,0.0,0.0,79,0.00,,---,0.04,VWS V13.01,2013-05-17 17:56:00,
2013-05-17 10:59:00,57.4,50.9,29.56,South,175,2.7,2.7,79,0.00,,---,0.04,VWS V13.01,2013-05-17 17:59:00,
2013-05-17 11:00:00,57.4,50.9,29.56,WSW,254,0.0,2.7,79,0.00,,---,0.04,VWS V13.01,2013-05-17 18:00:00,
2013-05-17 11:01:00,57.4,50.9,29.56,WSW,254,0.0,0.0,79,0.00,,---,0.04,VWS V13.01,2013-05-17 18:01:00,
2013-05-17 11:04:00,57.4,50.9,29.56,WSW,258,0.0,0.0,79,0.00,,---,0.04,VWS V13.01,2013-05-17 18:04:00,
2013-05-17 11:05:00,57.4,50.9,29.56,WSW,237,3.1,3.1,79,0.00,,---,0.04,VWS V13.01,2013-05-17 18:05:00,
2013-05-17 11:06:00,57.4,50.9,29.56,WSW,238,2.7,4.0,79,0.00,,---,0.04,VWS V13.01,2013-05-17 18:06:00,
2013-05-17 11:09:00,57.4,50.9,29.56,SSW,201,2.2,2.2,79,0.00,,---,0.04,VWS V13.01,2013-05-17 18:09:00,
2013-05-17 11:10:00,57.2,50.1,29.56,SSW,201,2.2,2.2,77,0.00,,---,0.04,VWS V13.01,2013-05-17 18:10:00,
2013-05-17 11:11:00,57.2,50.1,29.56,SSW,201,2.2,2.2,77,0.00,,---,0.04,VWS V13.01,2013-05-17 18:11:00,
2013-05-17 11:14:00,57.2,50.1,29.56,SW,226,4.0,4.0,77,0.00,,---,0.04,VWS V13.01,2013-05-17 18:14:00,
2013-05-17 11:15:00,57.2,50.1,29.56,West,262,2.7,4.0,77,0.00,,---,0.04,VWS V13.01,2013-05-17 18:15:00,
2013-05-17 11:17:00,57.2,50.1,29.56,SW,214,3.6,3.6,77,0.00,,---,0.04,VWS V13.01,2013-05-17 18:17:00,
2013-05-17 11:19:00,57.0,49.9,29.56,SW,225,3.1,3.6,77,0.00,,---,0.04,VWS V13.01,2013-05-17 18:19:00,
2013-05-17 11:20:00,57.0,49.9,29.56,SW,225,3.1,3.1,77,0.00,,---,0.04,VWS V13.01,2013-05-17 18:20:00,
2013-05-17 11:22:00,57.0,49.9,29.56,WNW,288,3.6,3.6,77,0.00,,---,0.04,VWS V13.01,2013-05-17 18:22:00,
2013-05-17 11:24:00,57.0,49.9,29.56,WNW,288,3.6,3.6,77,0.00,,---,0.04,VWS V13.01,2013-05-17 18:24:00,
2013-05-17 11:25:00,57.0,49.9,29.56,SSW,205,0.0,0.0,77,0.00,,---,0.04,VWS V13.01,2013-05-17 18:25:00,
2013-05-17 11:27:00,57.0,49.9,29.56,SSW,205,0.0,0.0,77,0.00,,---,0.04,VWS V13.01,2013-05-17 18:27:00,
2013-05-17 11:29:00,57.2,50.8,29.56,WSW,245,0.0,0.0,79,0.00,,---,0.04,VWS V13.01,2013-05-17 18:29:00,
2013-05-17 11:30:00,57.2,50.8,29.56,WSW,245,0.0,0.0,79,0.00,,---,0.04,VWS V13.01,2013-05-17 18:30:00,
2013-05-17 11:31:00,57.2,50.8,29.56,WSW,247,0.0,0.0,79,0.00,,---,0.04,VWS V13.01,2013-05-17 18:31:00,
2013-05-17 11:32:00,57.6,51.5,29.56,West,259,0.0,0.0,80,0.00,,---,0.04,VWS V13.01,2013-05-17 18:32:00,
2013-05-17 11:34:00,57.6,51.5,29.56,South,184,0.0,0.0,80,0.00,,---,0.04,VWS V13.01,2013-05-17 18:34:00,
2013-05-17 11:35:00,57.6,51.5,29.56,West,272,0.0,0.0,80,0.00,,---,0.04,VWS V13.01,2013-05-17 18:35:00,
2013-05-17 11:36:00,57.6,51.5,29.56,ENE,76,0.0,0.0,80,0.00,,---,0.04,VWS V13.01,2013-05-17 18:36:00,
2013-05-17 11:37:00,57.6,51.5,29.56,ENE,76,0.0,0.0,80,0.00,,---,0.04,VWS V13.01,2013-05-17 18:37:00,
2013-05-17 11:40:00,57.6,51.5,29.56,East,79,0.0,0.0,80,0.00,,---,0.04,VWS V13.01,2013-05-17 18:40:00,
2013-05-17 11:41:00,57.6,51.5,29.56,East,79,0.0,0.0,80,0.00,,---,0.04,VWS V13.01,2013-05-17 18:41:00,
2013-05-17 11:42:00,57.6,51.5,29.56,ESE,121,2.7,3.1,80,0.00,,---,0.04,VWS V13.01,2013-05-17 18:42:00,
2013-05-17 11:45:00,57.6,51.5,29.56,North,349,0.0,0.0,80,0.00,,---,0.04,VWS V13.01,2013-05-17 18:45:00,
2013-05-17 11:46:00,57.6,51.5,29.56,North,349,0.0,0.0,80,0.00,,---,0.04,VWS V13.01,2013-05-17 18:46:00,
2013-05-17 11:47:00,57.2,51.1,29.56,North,349,0.0,0.0,80,0.00,,---,0.04,VWS V13.01,2013-05-17 18:47:00,
2013-05-17 11:50:00,57.2,51.1,29.56,SE,137,3.1,3.1,80,0.00,,---,0.04,VWS V13.01,2013-05-17 18:50:00,
2013-05-17 11:51:00,57.2,51.1,29.56,SE,137,3.1,3.1,80,0.00,,---,0.04,VWS V13.01,2013-05-17 18:51:00,
2013-05-17 11:53:00,57.2,51.1,29.56,WNW,282,0.0,0.0,80,0.00,,---,0.04,VWS V13.01,2013-05-17 18:53:00,
2013-05-17 11:55:00,57.6,51.5,29.56,NW,314,0.0,0.0,80,0.00,,---,0.04,VWS V13.01,2013-05-17 18:55:00,
2013-05-17 11:56:00,57.6,51.5,29.56,East,95,0.0,0.0,80,0.00,,---,0.04,VWS V13.01,2013-05-17 18:56:00,
2013-05-17 11:58:00,57.6,51.5,29.56,East,95,0.0,0.0,80,0.00,,---,0.04,VWS V13.01,2013-05-17 18:58:00,
2013-05-17 12:00:00,57.6,51.5,29.56,East,95,0.0,0.0,80,0.00,,---,0.04,VWS V13.01,2013-05-17 19:00:00,
2013-05-17 12:01:00,57.6,51.5,29.56,SSE,168,2.2,2.2,80,0.00,,---,0.04,VWS V13.01,2013-05-17 19:01:00,
2013-05-17 12:03:00,58.1,52.0,29.56,SSE,168,2.2,2.2,80,0.00,,---,0.04,VWS V13.01,2013-05-17 19:03:00,
2013-05-17 12:05:00,58.1,51.6,29.56,East,100,0.0,0.0,79,0.00,,---,0.04,VWS V13.01,2013-05-17 19:05:00,
2013-05-17 12:06:00,58.1,51.6,29.56,East,100,0.0,0.0,79,0.00,,---,0.04,VWS V13.01,2013-05-17 19:06:00,
2013-05-17 12:08:00,58.1,51.6,29.56,NW,312,0.0,0.0,79,0.00,,---,0.04,VWS V13.01,2013-05-17 19:08:00,
2013-05-17 12:10:00,58.1,51.6,29.56,SW,218,2.7,5.8,79,0.00,,---,0.04,VWS V13.01,2013-05-17 19:10:00,
2013-05-17 12:11:00,58.1,51.6,29.56,West,270,0.0,2.7,79,0.00,,---,0.04,VWS V13.01,2013-05-17 19:11:00,
2013-05-17 12:13:00,58.1,51.6,29.56,SSW,210,0.0,0.0,79,0.00,,---,0.04,VWS V13.01,2013-05-17 19:13:00,
2013-05-17 12:15:00,58.1,51.6,29.56,SSW,210,0.0,0.0,79,0.00,,---,0.04,VWS V13.01,2013-05-17 19:15:00,
2013-05-17 12:16:00,58.1,51.6,29.56,ENE,61,0.0,0.0,79,0.00,,---,0.04,VWS V13.01,2013-05-17 19:16:00,
2013-05-17 12:18:00,58.1,51.6,29.56,ENE,61,0.0,0.0,79,0.00,,---,0.04,VWS V13.01,2013-05-17 19:18:00,
2013-05-17 12:20:00,58.1,51.6,29.56,SE,133,0.0,0.0,79,0.00,,---,0.04,VWS V13.01,2013-05-17 19:20:00,
2013-05-17 12:21:00,58.1,51.6,29.56,SE,133,0.0,0.0,79,0.00,,---,0.04,VWS V13.01,2013-05-17 19:21:00,
2013-05-17 12:23:00,58.6,52.5,29.56,West,273,0.0,0.0,80,0.00,,---,0.04,VWS V13.01,2013-05-17 19:23:00,
2013-05-17 12:25:00,58.6,52.5,29.56,NE,48,2.7,2.7,80,0.00,,---,0.04,VWS V13.01,2013-05-17 19:25:00,
2013-05-17 12:26:00,58.6,52.5,29.56,NE,48,2.7,2.7,80,0.00,,---,0.04,VWS V13.01,2013-05-17 19:26:00,
2013-05-17 12:29:00,58.6,52.5,29.56,NE,48,2.7,2.7,80,0.00,,---,0.04,VWS V13.01,2013-05-17 19:29:00,
2013-05-17 12:30:00,58.6,52.5,29.56,SW,220,0.0,2.7,80,0.00,,---,0.04,VWS V13.01,2013-05-17 19:30:00,
2013-05-17 12:31:00,58.6,52.5,29.56,SW,220,0.0,0.0,80,0.00,,---,0.04,VWS V13.01,2013-05-17 19:31:00,
2013-05-17 12:32:00,58.3,51.8,29.56,SW,224,0.0,0.0,79,0.00,,---,0.04,VWS V13.01,2013-05-17 19:32:00,
2013-05-17 12:34:00,58.3,51.8,29.56,SW,224,0.0,0.0,79,0.00,,---,0.04,VWS V13.01,2013-05-17 19:34:00,
2013-05-17 12:36:00,58.3,51.8,29.56,SW,224,0.0,0.0,79,0.00,,---,0.04,VWS V13.01,2013-05-17 19:36:00,
2013-05-17 12:37:00,58.3,51.8,29.56,SW,224,0.0,0.0,79,0.00,,---,0.04,VWS V13.01,2013-05-17 19:37:00,
2013-05-17 12:39:00,58.3,51.8,29.56,WNW,290,3.6,3.6,79,0.00,,---,0.04,VWS V13.01,2013-05-17 19:39:00,
2013-05-17 12:41:00,58.1,51.6,29.56,WNW,290,3.6,3.6,79,0.00,,---,0.04,VWS V13.01,2013-05-17 19:41:00,
2013-05-17 12:42:00,58.1,51.6,29.56,WNW,296,0.0,0.0,79,0.00,,---,0.04,VWS V13.01,2013-05-17 19:42:00,
2013-05-17 12:44:00,58.1,51.6,29.56,NW,309,0.0,0.0,79,0.00,,---,0.04,VWS V13.01,2013-05-17 19:44:00,
2013-05-17 12:46:00,58.1,51.6,29.56,ENE,78,3.6,3.6,79,0.00,,---,0.04,VWS V13.01,2013-05-17 19:46:00,
2013-05-17 12:47:00,58.1,51.6,29.56,ENE,63,2.7,2.7,79,0.00,,---,0.04,VWS V13.01,2013-05-17 19:47:00,
2013-05-17 12:49:00,58.5,52.3,29.56,South,190,2.2,2.2,80,0.00,,---,0.04,VWS V13.01,2013-05-17 19:49:00,
2013-05-17 12:51:00,58.5,52.3,29.56,South,190,2.2,2.2,80,0.00,,---,0.04,VWS V13.01,2013-05-17 19:51:00,
2013-05-17 12:52:00,58.5,52.3,29.56,South,190,2.2,2.2,80,0.00,,---,0.04,VWS V13.01,2013-05-17 19:52:00,
2013-05-17 12:55:00,58.5,52.3,29.56,East,98,0.0,0.0,80,0.00,,---,0.04,VWS V13.01,2013-05-17 19:55:00,
2013-05-17 12:56:00,58.5,52.3,29.56,SSE,156,0.0,0.0,80,0.04,,---,0.08,VWS V13.01,2013-05-17 19:56:00,
2013-05-17 12:57:00,58.5,52.3,29.56,SSE,156,0.0,0.0,80,0.04,,---,0.08,VWS V13.01,2013-05-17 19:57:00,
2013-05-17 13:00:00,58.5,52.3,29.56,ESE,105,2.7,2.7,80,0.04,,---,0.08,VWS V13.01,2013-05-17 20:00:00,
2013-05-17 13:01:00,58.5,52.3,29.56,East,97,0.0,2.7,80,0.04,,---,0.08,VWS V13.01,2013-05-17 20:01:00,
2013-05-17 13:02:00,58.5,52.3,29.56,East,97,0.0,2.7,80,0.04,,---,0.08,VWS V13.01,2013-05-17 20:02:00,
2013-05-17 13:03:00,58.3,52.2,29.56,East,97,0.0,0.0,80,0.04,,---,0.08,VWS V13.01,2013-05-17 20:03:00,
2013-05-17 13:05:00,58.3,52.2,29.56,North,0,0.0,0.0,80,0.04,,---,0.08,VWS V13.01,2013-05-17 20:05:00,
2013-05-17 13:07:00,58.3,52.2,29.56,North,0,0.0,0.0,80,0.04,,---,0.08,VWS V13.01,2013-05-17 20:07:00,
2013-05-17 13:08:00,57.9,51.8,29.56,North,0,0.0,0.0,80,0.04,,---,0.08,VWS V13.01,2013-05-17 20:08:00,
2013-05-17 13:10:00,57.9,51.8,29.56,North,0,0.0,0.0,80,0.04,,---,0.08,VWS V13.01,2013-05-17 20:10:00,
2013-05-17 13:12:00,57.9,51.8,29.56,SSE,154,0.0,0.0,80,0.04,,---,0.08,VWS V13.01,2013-05-17 20:12:00,
2013-05-17 13:13:00,57.9,51.8,29.56,SSE,154,0.0,0.0,80,0.04,,---,0.08,VWS V13.01,2013-05-17 20:13:00,
2013-05-17 13:15:00,57.9,51.8,29.56,East,91,0.0,0.0,80,0.04,,---,0.08,VWS V13.01,2013-05-17 20:15:00,
2013-05-17 13:17:00,57.9,51.8,29.56,East,89,0.0,0.0,80,0.04,,---,0.08,VWS V13.01,2013-05-17 20:17:00,
2013-05-17 13:18:00,57.9,52.1,29.56,East,89,0.0,0.0,81,0.04,,---,0.08,VWS V13.01,2013-05-17 20:18:00,
2013-05-17 13:21:00,57.9,52.1,29.56,SE,127,2.2,2.2,81,0.04,,---,0.08,VWS V13.01,2013-05-17 20:21:00,
2013-05-17 13:22:00,57.9,52.1,29.56,SE,127,2.2,2.2,81,0.04,,---,0.08,VWS V13.01,2013-05-17 20:22:00,
2013-05-17 13:24:00,57.9,52.1,29.56,ESE,119,0.0,2.2,81,0.04,,---,0.08,VWS V13.01,2013-05-17 20:24:00,
2013-05-17 13:26:00,57.9,52.1,29.56,ESE,119,0.0,0.0,81,0.04,,---,0.08,VWS V13.01,2013-05-17 20:26:00,
2013-05-17 13:27:00,57.9,52.1,29.56,ENE,65,0.0,0.0,81,0.04,,---,0.08,VWS V13.01,2013-05-17 20:27:00,
2013-05-17 13:28:00,57.9,52.1,29.56,ENE,65,0.0,0.0,81,0.04,,---,0.08,VWS V13.01,2013-05-17 20:28:00,
2013-05-17 13:29:00,57.9,52.1,29.56,SSE,154,0.0,0.0,81,0.04,,---,0.08,VWS V13.01,2013-05-17 20:29:00,
2013-05-17 13:31:00,57.9,52.1,29.56,SSE,154,0.0,0.0,81,0.04,,---,0.08,VWS V13.01,2013-05-17 20:31:00,
2013-05-17 13:32:00,57.9,52.1,29.56,SE,133,4.0,4.0,81,0.04,,---,0.08,VWS V13.01,2013-05-17 20:32:00,
2013-05-17 13:33:00,57.9,52.1,29.56,SE,133,4.0,4.0,81,0.04,,---,0.08,VWS V13.01,2013-05-17 20:33:00,
2013-05-17 13:34:00,57.9,52.1,29.56,SE,133,4.0,4.0,81,0.04,,---,0.08,VWS V13.01,2013-05-17 20:34:00,
2013-05-17 13:36:00,57.9,52.1,29.56,SE,142,0.0,4.0,81,0.04,,---,0.08,VWS V13.01,2013-05-17 20:36:00,
2013-05-17 13:38:00,57.9,52.1,29.56,SE,142,0.0,0.0,81,0.04,,---,0.08,VWS V13.01,2013-05-17 20:38:00,
2013-05-17 13:39:00,57.9,52.1,29.56,SE,142,0.0,0.0,81,0.04,,---,0.08,VWS V13.01,2013-05-17 20:39:00,
2013-05-17 13:41:00,57.9,52.1,29.56,East,82,2.7,2.7,81,0.04,,---,0.08,VWS V13.01,2013-05-17 20:41:00,
2013-05-17 13:43:00,57.9,52.1,29.56,East,82,2.7,2.7,81,0.04,,---,0.08,VWS V13.01,2013-05-17 20:43:00,
2013-05-17 13:44:00,57.9,52.1,29.56,East,82,2.7,2.7,81,0.04,,---,0.08,VWS V13.01,2013-05-17 20:44:00,
2013-05-17 13:46:00,58.1,52.3,29.56,NE,46,2.7,2.7,81,0.04,,---,0.08,VWS V13.01,2013-05-17 20:46:00,
2013-05-17 13:48:00,58.1,52.3,29.56,NE,55,2.2,3.1,81,0.04,,---,0.08,VWS V13.01,2013-05-17 20:48:00,
2013-05-17 13:49:00,58.1,52.3,29.56,NE,55,0.0,0.0,81,0.04,,---,0.08,VWS V13.01,2013-05-17 20:49:00,
2013-05-17 13:51:00,58.1,52.3,29.56,South,172,2.2,2.2,81,0.04,,---,0.08,VWS V13.01,2013-05-17 20:51:00,
2013-05-17 13:53:00,58.1,52.3,29.56,South,172,2.2,2.2,81,0.04,,---,0.08,VWS V13.01,2013-05-17 20:53:00,
2013-05-17 13:54:00,58.1,52.3,29.56,ESE,112,0.0,2.2,81,0.04,,---,0.08,VWS V13.01,2013-05-17 20:54:00,
2013-05-17 13:56:00,58.1,52.3,29.56,ESE,112,0.0,0.0,81,0.04,,---,0.08,VWS V13.01,2013-05-17 20:56:00,
2013-05-17 13:58:00,58.1,52.3,29.56,ESE,112,0.0,0.0,81,0.00,,---,0.08,VWS V13.01,2013-05-17 20:58:00,
2013-05-17 13:59:00,58.1,52.3,29.56,NE,40,0.0,0.0,81,0.00,,---,0.08,VWS V13.01,2013-05-17 20:59:00,
2013-05-17 14:01:00,58.1,52.3,29.56,NE,40,0.0,0.0,81,0.00,,---,0.08,VWS V13.01,2013-05-17 21:01:00,
2013-05-17 14:03:00,58.6,52.8,29.56,NE,44,0.0,0.0,81,0.00,,---,0.08,VWS V13.01,2013-05-17 21:03:00,
2013-05-17 14:04:00,58.8,53.0,29.56,NE,44,0.0,0.0,81,0.00,,---,0.08,VWS V13.01,2013-05-17 21:04:00,
2013-05-17 14:06:00,58.8,53.0,29.56,East,92,2.7,2.7,81,0.00,,---,0.08,VWS V13.01,2013-05-17 21:06:00,
2013-05-17 14:08:00,58.8,53.0,29.56,ENE,65,3.6,3.6,81,0.00,,---,0.08,VWS V13.01,2013-05-17 21:08:00,
2013-05-17 14:09:00,58.8,53.0,29.56,East,81,2.7,3.6,81,0.00,,---,0.08,VWS V13.01,2013-05-17 21:09:00,
2013-05-17 14:11:00,58.8,52.7,29.56,East,81,2.7,2.7,80,0.00,,---,0.08,VWS V13.01,2013-05-17 21:11:00,
2013-05-17 14:13:00,58.8,52.7,29.56,NE,50,2.7,2.7,80,0.00,,---,0.08,VWS V13.01,2013-05-17 21:13:00,
2013-05-17 14:14:00,58.8,52.7,29.56,East,95,2.7,2.7,80,0.00,,---,0.08,VWS V13.01,2013-05-17 21:14:00,
2013-05-17 14:16:00,58.8,52.7,29.56,ESE,111,0.0,2.7,80,0.00,,---,0.08,VWS V13.01,2013-05-17 21:16:00,
2013-05-17 14:18:00,58.8,52.7,29.56,ESE,111,0.0,0.0,80,0.00,,---,0.08,VWS V13.01,2013-05-17 21:18:00,
2013-05-17 14:20:00,58.8,52.7,29.56,ESE,111,0.0,0.0,80,0.00,,---,0.08,VWS V13.01,2013-05-17 21:20:00,
2013-05-17 14:22:00,59.2,52.3,29.56,East,83,0.0,0.0,78,0.00,,---,0.08,VWS V13.01,2013-05-17 21:22:00,
2013-05-17 14:23:00,59.2,52.3,29.56,ENE,60,5.8,5.8,78,0.00,,---,0.08,VWS V13.01,2013-05-17 21:23:00,
2013-05-17 14:24:00,59.2,52.3,29.56,ENE,60,5.8,5.8,78,0.00,,---,0.08,VWS V13.01,2013-05-17 21:24:00,
2013-05-17 14:25:00,59.2,52.3,29.56,ENE,60,5.8,5.8,78,0.00,,---,0.08,VWS V13.01,2013-05-17 21:25:00,
2013-05-17 14:27:00,59.2,52.3,29.56,ENE,68,0.0,0.0,78,0.00,,---,0.08,VWS V13.01,2013-05-17 21:27:00,
2013-05-17 14:28:00,59.2,52.3,29.56,ENE,68,0.0,0.0,78,0.00,,---,0.08,VWS V13.01,2013-05-17 21:28:00,
2013-05-17 14:29:00,59.2,52.3,29.56,ENE,68,0.0,0.0,78,0.00,,---,0.08,VWS V13.01,2013-05-17 21:29:00,
2013-05-17 14:30:00,59.4,52.2,29.56,East,88,0.0,0.0,77,0.00,,---,0.08,VWS V13.01,2013-05-17 21:30:00,
2013-05-17 14:32:00,59.4,52.2,29.56,East,88,0.0,0.0,77,0.00,,---,0.08,VWS V13.01,2013-05-17 21:32:00,
2013-05-17 14:33:00,59.4,52.2,29.56,East,88,0.0,0.0,77,0.00,,---,0.08,VWS V13.01,2013-05-17 21:33:00,
2013-05-17 14:34:00,59.4,52.2,29.56,East,88,0.0,0.0,77,0.00,,---,0.08,VWS V13.01,2013-05-17 21:34:00,
2013-05-17 14:35:00,59.5,52.3,29.56,East,83,3.6,3.6,77,0.00,,---,0.08,VWS V13.01,2013-05-17 21:35:00,
2013-05-17 14:37:00,59.5,52.3,29.56,ENE,70,4.0,4.0,77,0.00,,---,0.08,VWS V13.01,2013-05-17 21:37:00,
2013-05-17 14:38:00,59.5,52.3,29.56,ENE,78,3.6,4.0,77,0.00,,---,0.08,VWS V13.01,2013-05-17 21:38:00,
2013-05-17 14:39:00,59.7,52.2,29.56,ENE,78,3.6,3.6,76,0.00,,---,0.08,VWS V13.01,2013-05-17 21:39:00,
2013-05-17 14:40:00,59.7,52.2,29.56,ENE,78,3.6,3.6,76,0.00,,---,0.08,VWS V13.01,2013-05-17 21:40:00,
2013-05-17 14:42:00,59.7,52.2,29.56,ESE,123,2.7,3.6,76,0.00,,---,0.08,VWS V13.01,2013-05-17 21:42:00,
2013-05-17 14:44:00,59.7,52.2,29.56,ESE,123,2.7,2.7,76,0.00,,---,0.08,VWS V13.01,2013-05-17 21:44:00,
2013-05-17 14:45:00,59.7,52.2,29.56,SE,135,0.0,0.0,76,0.00,,---,0.08,VWS V13.01,2013-05-17 21:45:00,
2013-05-17 14:48:00,60.1,52.5,29.56,SE,128,0.0,0.0,76,0.00,,---,0.08,VWS V13.01,2013-05-17 21:48:00,
2013-05-17 14:49:00,60.1,52.5,29.56,SE,128,0.0,0.0,76,0.00,,---,0.08,VWS V13.01,2013-05-17 21:49:00,
2013-05-17 14:50:00,60.1,52.5,29.56,ENE,66,5.4,5.4,76,0.00,,---,0.08,VWS V13.01,2013-05-17 21:50:00,
2013-05-17 14:53:00,60.1,52.5,29.56,East,97,2.7,2.7,76,0.00,,---,0.08,VWS V13.01,2013-05-17 21:53:00,
2013-05-17 14:54:00,60.1,52.5,29.56,East,97,0.0,0.0,76,0.00,,---,0.08,VWS V13.01,2013-05-17 21:54:00,
2013-05-17 14:55:00,60.1,52.5,29.56,East,97,0.0,0.0,76,0.00,,---,0.08,VWS V13.01,2013-05-17 21:55:00,
2013-05-17 14:58:00,60.1,52.5,29.56,ENE,75,4.0,4.5,76,0.00,,---,0.08,VWS V13.01,2013-05-17 21:58:00,
2013-05-17 14:59:00,60.1,52.5,29.56,ENE,75,4.0,4.0,76,0.00,,---,0.08,VWS V13.01,2013-05-17 21:59:00,
2013-05-17 15:00:00,60.1,52.5,29.56,East,86,2.7,2.7,76,0.00,,---,0.08,VWS V13.01,2013-05-17 22:00:00,
2013-05-17 15:03:00,60.1,52.5,29.56,ESE,111,2.7,2.7,76,0.00,,---,0.08,VWS V13.01,2013-05-17 22:03:00,
2013-05-17 15:04:00,60.1,52.5,29.56,ESE,111,2.7,2.7,76,0.00,,---,0.08,VWS V13.01,2013-05-17 22:04:00,
2013-05-17 15:05:00,60.1,52.1,29.56,ESE,111,2.7,2.7,75,0.00,,---,0.08,VWS V13.01,2013-05-17 22:05:00,
2013-05-17 15:08:00,60.1,52.1,29.56,ESE,116,0.0,0.0,75,0.00,,---,0.08,VWS V13.01,2013-05-17 22:08:00,
2013-05-17 15:09:00,60.1,52.1,29.56,ENE,74,2.7,2.7,75,0.00,,---,0.08,VWS V13.01,2013-05-17 22:09:00,
2013-05-17 15:10:00,60.1,52.1,29.56,ENE,74,2.7,2.7,75,0.00,,---,0.08,VWS V13.01,2013-05-17 22:10:00,
2013-05-17 15:11:00,60.1,52.1,29.56,ENE,74,2.7,2.7,75,0.00,,---,0.08,VWS V13.01,2013-05-17 22:11:00,
2013-05-17 15:13:00,60.1,52.1,29.56,ENE,72,3.6,3.6,75,0.00,,---,0.08,VWS V13.01,2013-05-17 22:13:00,
2013-05-17 15:15:00,60.1,52.1,29.56,East,81,0.0,0.0,75,0.00,,---,0.08,VWS V13.01,2013-05-17 22:15:00,
2013-05-17 15:16:00,60.1,51.8,29.56,East,81,0.0,0.0,74,0.00,,---,0.08,VWS V13.01,2013-05-17 22:16:00,
2013-05-17 15:18:00,60.1,51.8,29.56,East,81,0.0,0.0,74,0.00,,---,0.08,VWS V13.01,2013-05-17 22:18:00,
2013-05-17 15:20:00,60.1,51.8,29.56,SSE,162,0.0,0.0,74,0.00,,---,0.08,VWS V13.01,2013-05-17 22:20:00,
2013-05-17 15:21:00,60.1,51.8,29.56,SSE,162,0.0,0.0,74,0.00,,---,0.08,VWS V13.01,2013-05-17 22:21:00,
2013-05-17 15:23:00,60.1,51.8,29.56,SSE,152,2.7,2.7,74,0.00,,---,0.08,VWS V13.01,2013-05-17 22:23:00,
2013-05-17 15:25:00,60.1,51.8,29.56,SSE,152,2.7,2.7,74,0.00,,---,0.08,VWS V13.01,2013-05-17 22:25:00,
2013-05-17 15:26:00,60.1,51.8,29.56,SSE,152,2.7,2.7,74,0.00,,---,0.08,VWS V13.01,2013-05-17 22:26:00,
2013-05-17 15:29:00,60.1,51.8,29.56,NE,55,0.0,0.0,74,0.00,,---,0.08,VWS V13.01,2013-05-17 22:29:00,
2013-05-17 15:30:00,60.1,51.8,29.56,NE,55,0.0,0.0,74,0.00,,---,0.08,VWS V13.01,2013-05-17 22:30:00,
2013-05-17 15:31:00,60.1,51.8,29.56,NE,56,0.0,0.0,74,0.00,,---,0.08,VWS V13.01,2013-05-17 22:31:00,
2013-05-17 15:34:00,60.1,51.8,29.56,ESE,117,0.0,0.0,74,0.00,,---,0.08,VWS V13.01,2013-05-17 22:34:00,
2013-05-17 15:35:00,59.9,52.0,29.56,ESE,117,0.0,0.0,75,0.00,,---,0.08,VWS V13.01,2013-05-17 22:35:00,
2013-05-17 15:36:00,59.9,52.0,29.56,South,172,2.2,2.2,75,0.00,,---,0.08,VWS V13.01,2013-05-17 22:36:00,
2013-05-17 15:39:00,59.9,52.0,29.56,South,172,2.2,2.2,75,0.00,,---,0.08,VWS V13.01,2013-05-17 22:39:00,
2013-05-17 15:40:00,59.9,52.0,29.56,ESE,119,2.2,3.1,75,0.00,,---,0.08,VWS V13.01,2013-05-17 22:40:00,
2013-05-17 15:41:00,59.9,52.0,29.56,ESE,119,0.0,2.2,75,0.00,,---,0.08,VWS V13.01,2013-05-17 22:41:00,
2013-05-17 15:44:00,59.9,52.0,29.56,ESE,119,0.0,0.0,75,0.00,,---,0.08,VWS V13.01,2013-05-17 22:44:00,
2013-05-17 15:45:00,59.9,52.0,29.56,East,93,0.0,0.0,75,0.00,,---,0.08,VWS V13.01,2013-05-17 22:45:00,
2013-05-17 15:46:00,59.9,52.0,29.56,East,93,0.0,0.0,75,0.00,,---,0.08,VWS V13.01,2013-05-17 22:46:00,
2013-05-17 15:47:00,59.9,52.0,29.56,East,93,0.0,0.0,75,0.00,,---,0.08,VWS V13.01,2013-05-17 22:47:00,
2013-05-17 15:49:00,59.9,52.0,29.56,East,89,0.0,0.0,75,0.00,,---,0.08,VWS V13.01,2013-05-17 22:49:00,
2013-05-17 15:51:00,59.9,52.0,29.56,East,89,0.0,0.0,75,0.00,,---,0.08,VWS V13.01,2013-05-17 22:51:00,
2013-05-17 15:52:00,59.9,52.0,29.56,East,89,0.0,0.0,75,0.00,,---,0.08,VWS V13.01,2013-05-17 22:52:00,
2013-05-17 15:54:00,59.9,52.0,29.56,SE,130,2.2,2.2,75,0.00,,---,0.08,VWS V13.01,2013-05-17 22:54:00,
2013-05-17 15:56:00,59.9,52.0,29.56,SE,130,2.2,2.2,75,0.00,,---,0.08,VWS V13.01,2013-05-17 22:56:00,
2013-05-17 15:57:00,59.9,52.0,29.56,East,84,0.0,2.2,75,0.00,,---,0.08,VWS V13.01,2013-05-17 22:57:00,
2013-05-17 15:59:00,59.9,52.0,29.56,East,84,0.0,0.0,75,0.00,,---,0.08,VWS V13.01,2013-05-17 22:59:00,
2013-05-17 16:01:00,59.9,52.0,29.56,East,84,0.0,0.0,75,0.00,,---,0.08,VWS V13.01,2013-05-17 23:01:00,
2013-05-17 16:02:00,59.9,52.0,29.56,East,100,3.1,3.1,75,0.00,,---,0.08,VWS V13.01,2013-05-17 23:02:00,
2013-05-17 16:05:00,59.9,52.0,29.56,SE,126,2.7,2.7,75,0.00,,---,0.08,VWS V13.01,2013-05-17 23:05:00,
2013-05-17 16:06:00,60.4,51.8,29.56,SE,126,2.7,2.7,73,0.00,,---,0.08,VWS V13.01,2013-05-17 23:06:00,
2013-05-17 16:07:00,60.4,51.8,29.56,SSE,153,0.0,0.0,73,0.00,,---,0.08,VWS V13.01,2013-05-17 23:07:00,
2013-05-17 16:10:00,60.4,51.8,29.56,ENE,63,0.0,0.0,73,0.00,,---,0.08,VWS V13.01,2013-05-17 23:10:00,
2013-05-17 16:11:00,60.4,51.8,29.56,ENE,63,0.0,0.0,73,0.00,,---,0.08,VWS V13.01,2013-05-17 23:11:00,
2013-05-17 16:12:00,60.4,51.8,29.56,SE,126,2.2,2.2,73,0.00,,---,0.08,VWS V13.01,2013-05-17 23:12:00,
2013-05-17 16:15:00,60.4,51.8,29.56,SE,126,0.0,0.0,73,0.00,,---,0.08,VWS V13.01,2013-05-17 23:15:00,
2013-05-17 16:16:00,60.4,51.8,29.56,West,268,0.0,0.0,73,0.00,,---,0.08,VWS V13.01,2013-05-17 23:16:00,
2013-05-17 16:17:00,60.4,51.8,29.56,West,268,0.0,0.0,73,0.00,,---,0.08,VWS V13.01,2013-05-17 23:17:00,
2013-05-17 16:20:00,60.4,51.8,29.56,West,261,0.0,0.0,73,0.00,,---,0.08,VWS V13.01,2013-05-17 23:20:00,
2013-05-17 16:21:00,60.4,51.8,29.56,SW,228,2.7,2.7,73,0.00,,---,0.08,VWS V13.01,2013-05-17 23:21:00,
2013-05-17 16:22:00,60.4,51.8,29.56,SW,224,2.7,4.0,73,0.00,,---,0.08,VWS V13.01,2013-05-17 23:22:00,
2013-05-17 16:25:00,60.4,51.8,29.56,South,189,0.0,2.7,73,0.00,,---,0.08,VWS V13.01,2013-05-17 23:25:00,
2013-05-17 16:26:00,60.4,51.8,29.56,South,189,0.0,0.0,73,0.00,,---,0.08,VWS V13.01,2013-05-17 23:26:00,
2013-05-17 16:27:00,60.4,51.8,29.56,South,189,0.0,0.0,73,0.00,,---,0.08,VWS V13.01,2013-05-17 23:27:00,
2013-05-17 16:28:00,60.4,51.8,29.56,South,189,0.0,0.0,73,0.00,,---,0.08,VWS V13.01,2013-05-17 23:28:00,
2013-05-17 16:30:00,60.4,51.8,29.56,North,0,0.0,0.0,73,0.00,,---,0.08,VWS V13.01,2013-05-17 23:30:00,
2013-05-17 16:31:00,60.4,51.8,29.56,North,0,0.0,0.0,73,0.00,,---,0.08,VWS V13.01,2013-05-17 23:31:00,
2013-05-17 16:32:00,60.4,51.8,29.56,North,0,0.0,0.0,73,0.00,,---,0.08,VWS V13.01,2013-05-17 23:32:00,
2013-05-17 16:33:00,60.4,51.8,29.56,North,0,0.0,0.0,73,0.00,,---,0.08,VWS V13.01,2013-05-17 23:33:00,
2013-05-17 16:35:00,60.4,51.8,29.56,North,2,0.0,0.0,73,0.00,,---,0.08,VWS V13.01,2013-05-17 23:35:00,
2013-05-17 16:36:00,60.4,51.8,29.56,East,97,0.0,0.0,73,0.00,,---,0.08,VWS V13.01,2013-05-17 23:36:00,
2013-05-17 16:37:00,60.8,50.2,29.56,East,97,0.0,0.0,68,0.00,,---,0.08,VWS V13.01,2013-05-17 23:37:00,
2013-05-17 16:38:00,60.8,50.2,29.56,East,97,0.0,0.0,68,0.00,,---,0.08,VWS V13.01,2013-05-17 23:38:00,
2013-05-17 16:40:00,60.8,50.2,29.56,SSE,149,0.0,0.0,68,0.00,,---,0.08,VWS V13.01,2013-05-17 23:40:00,
2013-05-17 16:41:00,60.8,50.2,29.56,SSE,149,0.0,0.0,68,0.00,,---,0.08,VWS V13.01,2013-05-17 23:41:00,
2013-05-17 16:42:00,60.8,50.2,29.56,SSE,149,0.0,0.0,68,0.00,,---,0.08,VWS V13.01,2013-05-17 23:42:00,
2013-05-17 16:43:00,60.8,50.2,29.56,SSW,192,2.7,2.7,68,0.00,,---,0.08,VWS V13.01,2013-05-17 23:43:00,
2013-05-17 16:45:00,60.8,50.2,29.56,SSW,192,2.7,2.7,68,0.00,,---,0.08,VWS V13.01,2013-05-17 23:45:00,
2013-05-17 16:47:00,60.8,50.2,29.56,SSW,192,2.7,2.7,68,0.00,,---,0.08,VWS V13.01,2013-05-17 23:47:00,
2013-05-17 16:48:00,60.8,50.2,29.56,East,88,0.0,0.0,68,0.00,,---,0.08,VWS V13.01,2013-05-17 23:48:00,
2013-05-17 16:51:00,60.8,50.2,29.56,NNE,32,0.0,0.0,68,0.00,,---,0.08,VWS V13.01,2013-05-17 23:51:00,
2013-05-17 16:52:00,60.8,50.2,29.56,ENE,65,0.0,0.0,68,0.00,,---,0.08,VWS V13.01,2013-05-17 23:52:00,
2013-05-17 16:53:00,60.8,50.2,29.56,East,101,0.0,0.0,68,0.00,,---,0.08,VWS V13.01,2013-05-17 23:53:00,
2013-05-17 16:56:00,60.8,50.2,29.56,East,101,2.2,2.2,68,0.00,,---,0.08,VWS V13.01,2013-05-17 23:56:00,
2013-05-17 16:57:00,60.8,50.2,29.56,East,101,2.2,2.2,68,0.00,,---,0.08,VWS V13.01,2013-05-17 23:57:00,
2013-05-17 16:58:00,60.8,50.2,29.56,ENE,69,4.0,4.0,68,0.00,,---,0.08,VWS V13.01,2013-05-17 23:58:00,
2013-05-17 16:59:00,60.8,50.2,29.56,ENE,69,4.0,4.0,68,0.00,,---,0.08,VWS V13.01,2013-05-17 23:59:00,
2013-05-17 17:01:00,60.8,50.2,29.56,ENE,62,5.4,5.4,68,0.00,,---,0.08,VWS V13.01,2013-05-18 00:01:00,
2013-05-17 17:02:00,60.8,50.2,29.56,ESE,111,3.1,3.1,68,0.00,,---,0.08,VWS V13.01,2013-05-18 00:02:00,
2013-05-17 17:03:00,60.8,50.2,29.56,East,81,4.9,4.9,68,0.00,,---,0.08,VWS V13.01,2013-05-18 00:03:00,
2013-05-17 17:04:00,60.8,50.2,29.56,SSE,154,4.9,4.9,68,0.00,,---,0.08,VWS V13.01,2013-05-18 00:04:00,
2013-05-17 17:06:00,60.8,50.2,29.56,North,3,0.0,0.0,68,0.00,,---,0.08,VWS V13.01,2013-05-18 00:06:00,
2013-05-17 17:07:00,60.8,49.8,29.56,ENE,71,2.2,2.2,67,0.00,,---,0.08,VWS V13.01,2013-05-18 00:07:00,
2013-05-17 17:08:00,60.8,49.8,29.56,ENE,71,2.2,2.2,67,0.00,,---,0.08,VWS V13.01,2013-05-18 00:08:00,
2013-05-17 17:09:00,60.8,49.8,29.56,ENE,71,2.2,2.2,67,0.00,,---,0.08,VWS V13.01,2013-05-18 00:09:00,
2013-05-17 17:11:00,60.8,49.8,29.56,ESE,115,0.0,0.0,67,0.00,,---,0.08,VWS V13.01,2013-05-18 00:11:00,
2013-05-17 17:12:00,60.8,49.8,29.56,ESE,115,0.0,0.0,67,0.00,,---,0.08,VWS V13.01,2013-05-18 00:12:00,
2013-05-17 17:14:00,60.8,49.8,29.56,NNE,26,0.0,0.0,67,0.00,,---,0.08,VWS V13.01,2013-05-18 00:14:00,
2013-05-17 17:16:00,60.8,49.8,29.56,NE,34,2.2,2.2,67,0.00,,---,0.08,VWS V13.01,2013-05-18 00:16:00,
2013-05-17 17:17:00,60.8,49.8,29.56,NE,34,2.2,2.2,67,0.00,,---,0.08,VWS V13.01,2013-05-18 00:17:00,
2013-05-17 17:19:00,60.8,49.8,29.56,NNE,17,0.0,0.0,67,0.00,,---,0.08,VWS V13.01,2013-05-18 00:19:00,
2013-05-17 17:21:00,60.8,49.8,29.56,NNW,348,2.2,2.2,67,0.00,,---,0.08,VWS V13.01,2013-05-18 00:21:00,
2013-05-17 17:22:00,60.8,49.8,29.56,NNW,348,2.2,2.2,67,0.00,,---,0.08,VWS V13.01,2013-05-18 00:22:00,
2013-05-17 17:24:00,60.8,49.8,29.56,NNW,348,2.2,2.2,67,0.00,,---,0.08,VWS V13.01,2013-05-18 00:24:00,
2013-05-17 17:26:00,60.8,49.8,29.56,East,91,0.0,0.0,67,0.00,,---,0.08,VWS V13.01,2013-05-18 00:26:00,
2013-05-17 17:28:00,60.8,49.8,29.56,East,88,0.0,0.0,67,0.00,,---,0.08,VWS V13.01,2013-05-18 00:28:00,
2013-05-17 17:29:00,60.8,49.8,29.56,ENE,72,0.0,0.0,67,0.00,,---,0.08,VWS V13.01,2013-05-18 00:29:00,
2013-05-17 17:30:00,60.8,49.8,29.56,ENE,72,0.0,0.0,67,0.00,,---,0.08,VWS V13.01,2013-05-18 00:30:00,
2013-05-17 17:31:00,60.8,49.8,29.56,East,85,5.8,5.8,67,0.00,,---,0.08,VWS V13.01,2013-05-18 00:31:00,
2013-05-17 17:33:00,60.8,49.8,29.56,ENE,71,2.7,5.8,67,0.00,,---,0.08,VWS V13.01,2013-05-18 00:33:00,
2013-05-17 17:34:00,60.8,49.8,29.56,ENE,71,2.7,2.7,67,0.00,,---,0.08,VWS V13.01,2013-05-18 00:34:00,
2013-05-17 17:35:00,60.8,49.8,29.56,SE,136,0.0,0.0,67,0.00,,---,0.08,VWS V13.01,2013-05-18 00:35:00,
2013-05-17 17:36:00,60.8,49.8,29.56,SE,136,0.0,0.0,67,0.00,,---,0.08,VWS V13.01,2013-05-18 00:36:00,
2013-05-17 17:38:00,61.3,50.3,29.56,SE,124,4.0,4.0,67,0.00,,---,0.08,VWS V13.01,2013-05-18 00:38:00,
2013-05-17 17:39:00,61.3,50.3,29.56,East,91,0.0,4.0,67,0.00,,---,0.08,VWS V13.01,2013-05-18 00:39:00,
2013-05-17 17:40:00,61.3,50.3,29.56,East,91,0.0,0.0,67,0.00,,---,0.08,VWS V13.01,2013-05-18 00:40:00,
2013-05-17 17:41:00,61.3,50.3,29.56,East,99,0.0,0.0,67,0.00,,---,0.08,VWS V13.01,2013-05-18 00:41:00,
2013-05-17 17:43:00,61.3,50.3,29.56,East,99,0.0,0.0,67,0.00,,---,0.08,VWS V13.01,2013-05-18 00:43:00,
2013-05-17 17:44:00,61.3,50.3,29.56,East,96,2.7,2.7,67,0.00,,---,0.08,VWS V13.01,2013-05-18 00:44:00,
2013-05-17 17:45:00,61.3,50.3,29.56,East,90,2.7,2.7,67,0.00,,---,0.08,VWS V13.01,2013-05-18 00:45:00,
2013-05-17 17:46:00,61.3,50.3,29.56,ENE,77,0.0,2.7,67,0.00,,---,0.08,VWS V13.01,2013-05-18 00:46:00,
2013-05-17 17:47:00,61.3,50.3,29.56,ENE,74,2.7,2.7,67,0.00,,---,0.08,VWS V13.01,2013-05-18 00:47:00,
2013-05-17 17:48:00,61.3,50.3,29.56,ENE,74,2.7,2.7,67,0.00,,---,0.08,VWS V13.01,2013-05-18 00:48:00,
2013-05-17 17:49:00,61.3,50.3,29.56,ENE,74,2.7,2.7,67,0.00,,---,0.08,VWS V13.01,2013-05-18 00:49:00,
2013-05-17 17:50:00,61.3,50.3,29.56,ENE,74,2.7,2.7,67,0.00,,---,0.08,VWS V13.01,2013-05-18 00:50:00,
2013-05-17 17:51:00,61.3,50.3,29.56,ENE,74,2.7,2.7,67,0.00,,---,0.08,VWS V13.01,2013-05-18 00:51:00,
2013-05-17 17:52:00,61.3,50.3,29.56,ENE,74,2.7,2.7,67,0.00,,---,0.08,VWS V13.01,2013-05-18 00:52:00,
2013-05-17 17:53:00,61.3,50.3,29.56,ENE,58,0.0,0.0,67,0.00,,---,0.08,VWS V13.01,2013-05-18 00:53:00,
2013-05-17 17:54:00,61.3,50.3,29.56,ENE,58,0.0,0.0,67,0.00,,---,0.08,VWS V13.01,2013-05-18 00:54:00,
2013-05-17 17:55:00,61.3,50.3,29.56,ENE,58,0.0,0.0,67,0.00,,---,0.08,VWS V13.01,2013-05-18 00:55:00,
2013-05-17 17:56:00,61.3,50.3,29.56,SE,137,0.0,0.0,67,0.00,,---,0.08,VWS V13.01,2013-05-18 00:56:00,
2013-05-17 17:57:00,61.3,50.3,29.56,SE,137,0.0,0.0,67,0.00,,---,0.08,VWS V13.01,2013-05-18 00:57:00,
2013-05-17 17:58:00,61.3,50.3,29.56,East,95,0.0,0.0,67,0.00,,---,0.08,VWS V13.01,2013-05-18 00:58:00,
2013-05-17 18:00:00,61.3,50.3,29.56,East,95,0.0,0.0,67,0.00,,---,0.08,VWS V13.01,2013-05-18 01:00:00,
2013-05-17 18:01:00,61.3,50.3,29.56,East,95,0.0,0.0,67,0.00,,---,0.08,VWS V13.01,2013-05-18 01:01:00,
2013-05-17 18:02:00,61.3,50.3,29.56,SE,143,0.0,0.0,67,0.00,,---,0.08,VWS V13.01,2013-05-18 01:02:00,
2013-05-17 18:03:00,61.3,50.3,29.56,SE,143,0.0,0.0,67,0.00,,---,0.08,VWS V13.01,2013-05-18 01:03:00,
2013-05-17 18:05:00,61.3,50.3,29.56,SE,143,0.0,0.0,67,0.00,,---,0.08,VWS V13.01,2013-05-18 01:05:00,
2013-05-17 18:06:00,61.3,50.3,29.56,WNW,286,0.0,0.0,67,0.00,,---,0.08,VWS V13.01,2013-05-18 01:06:00,
2013-05-17 18:07:00,61.3,50.3,29.56,ENE,75,2.2,2.2,67,0.00,,---,0.08,VWS V13.01,2013-05-18 01:07:00,
2013-05-17 18:08:00,61.3,50.3,29.56,ENE,75,2.2,2.2,67,0.00,,---,0.08,VWS V13.01,2013-05-18 01:08:00,
2013-05-17 18:10:00,61.3,50.3,29.56,ENE,75,2.2,2.2,67,0.00,,---,0.08,VWS V13.01,2013-05-18 01:10:00,
2013-05-17 18:11:00,61.3,50.3,29.56,East,96,2.7,2.7,67,0.00,,---,0.08,VWS V13.01,2013-05-18 01:11:00,
2013-05-17 18:12:00,61.3,50.3,29.56,East,94,2.7,2.7,67,0.00,,---,0.08,VWS V13.01,2013-05-18 01:12:00,
2013-05-17 18:14:00,61.3,50.3,29.56,SE,132,2.2,2.7,67,0.00,,---,0.08,VWS V13.01,2013-05-18 01:14:00,
2013-05-17 18:15:00,61.3,50.3,29.56,SE,132,2.2,2.2,67,0.00,,---,0.08,VWS V13.01,2013-05-18 01:15:00,
2013-05-17 18:16:00,61.3,50.3,29.56,SE,132,2.2,2.2,67,0.00,,---,0.08,VWS V13.01,2013-05-18 01:16:00,
2013-05-17 18:17:00,61.3,50.3,29.56,SE,132,2.2,2.2,67,0.00,,---,0.08,VWS V13.01,2013-05-18 01:17:00,
2013-05-17 18:19:00,61.3,50.3,29.56,SE,132,2.2,2.2,67,0.00,,---,0.08,VWS V13.01,2013-05-18 01:19:00,
2013-05-17 18:20:00,61.3,50.3,29.56,East,80,0.0,0.0,67,0.00,,---,0.08,VWS V13.01,2013-05-18 01:20:00,
2013-05-17 18:21:00,61.3,50.3,29.56,ESE,103,0.0,0.0,67,0.00,,---,0.08,VWS V13.01,2013-05-18 01:21:00,
2013-05-17 18:22:00,61.3,50.3,29.56,ESE,103,0.0,0.0,67,0.00,,---,0.08,VWS V13.01,2013-05-18 01:22:00,
2013-05-17 18:24:00,61.3,50.3,29.56,ESE,103,0.0,0.0,67,0.00,,---,0.08,VWS V13.01,2013-05-18 01:24:00,
2013-05-17 18:25:00,61.3,50.3,29.56,ESE,103,0.0,0.0,67,0.00,,---,0.08,VWS V13.01,2013-05-18 01:25:00,
2013-05-17 18:26:00,61.3,50.3,29.56,ESE,103,0.0,0.0,67,0.00,,---,0.08,VWS V13.01,2013-05-18 01:26:00,
2013-05-17 18:27:00,61.3,50.3,29.56,ESE,103,0.0,0.0,67,0.00,,---,0.08,VWS V13.01,2013-05-18 01:27:00,
2013-05-17 18:29:00,61.3,50.3,29.56,ESE,103,0.0,0.0,67,0.00,,---,0.08,VWS V13.01,2013-05-18 01:29:00,
2013-05-17 18:30:00,61.3,50.3,29.56,ESE,103,0.0,0.0,67,0.00,,---,0.08,VWS V13.01,2013-05-18 01:30:00,
2013-05-17 18:31:00,61.3,50.3,29.56,ESE,103,0.0,0.0,67,0.00,,---,0.08,VWS V13.01,2013-05-18 01:31:00,
2013-05-17 18:32:00,61.3,50.3,29.56,ESE,103,0.0,0.0,67,0.00,,---,0.08,VWS V13.01,2013-05-18 01:32:00,
2013-05-17 18:34:00,61.3,50.3,29.56,West,272,2.2,2.2,67,0.00,,---,0.08,VWS V13.01,2013-05-18 01:34:00,
2013-05-17 18:35:00,61.3,50.3,29.56,West,273,0.0,0.0,67,0.00,,---,0.08,VWS V13.01,2013-05-18 01:35:00,
2013-05-17 18:36:00,61.3,50.3,29.56,West,273,0.0,0.0,67,0.00,,---,0.08,VWS V13.01,2013-05-18 01:36:00,
2013-05-17 18:37:00,61.3,50.3,29.56,West,273,0.0,0.0,67,0.00,,---,0.08,VWS V13.01,2013-05-18 01:37:00,
2013-05-17 18:39:00,60.1,48.7,29.56,West,281,3.1,3.1,66,0.00,,---,0.08,VWS V13.01,2013-05-18 01:39:00,
2013-05-17 18:40:00,60.1,48.7,29.56,West,281,3.1,3.1,66,0.00,,---,0.08,VWS V13.01,2013-05-18 01:40:00,
2013-05-17 18:42:00,60.1,48.7,29.56,West,272,0.0,3.1,66,0.00,,---,0.08,VWS V13.01,2013-05-18 01:42:00,
2013-05-17 18:44:00,60.1,48.7,29.56,SSW,198,3.1,3.1,66,0.00,,---,0.08,VWS V13.01,2013-05-18 01:44:00,
2013-05-17 18:46:00,60.1,48.7,29.56,SW,231,0.0,3.1,66,0.00,,---,0.08,VWS V13.01,2013-05-18 01:46:00,
2013-05-17 18:47:00,60.1,48.7,29.56,SW,231,0.0,3.1,66,0.00,,---,0.08,VWS V13.01,2013-05-18 01:47:00,
2013-05-17 18:48:00,60.1,48.7,29.56,WSW,238,0.0,0.0,66,0.00,,---,0.08,VWS V13.01,2013-05-18 01:48:00,
2013-05-17 18:49:00,60.1,48.7,29.56,SSW,201,0.0,0.0,66,0.00,,---,0.08,VWS V13.01,2013-05-18 01:49:00,
2013-05-17 18:51:00,60.1,48.7,29.56,SSW,202,2.2,2.2,66,0.00,,---,0.08,VWS V13.01,2013-05-18 01:51:00,
2013-05-17 18:52:00,60.1,48.7,29.56,SSW,202,0.0,2.2,66,0.00,,---,0.08,VWS V13.01,2013-05-18 01:52:00,
2013-05-17 18:53:00,60.1,48.7,29.56,SSW,202,0.0,0.0,66,0.00,,---,0.08,VWS V13.01,2013-05-18 01:53:00,
2013-05-17 18:54:00,60.1,48.7,29.56,SSW,202,0.0,0.0,66,0.00,,---,0.08,VWS V13.01,2013-05-18 01:54:00,
2013-05-17 18:56:00,60.1,48.7,29.56,SSW,202,0.0,0.0,66,0.00,,---,0.08,VWS V13.01,2013-05-18 01:56:00,
2013-05-17 18:57:00,60.1,48.7,29.56,SW,233,2.7,2.7,66,0.00,,---,0.08,VWS V13.01,2013-05-18 01:57:00,
2013-05-17 18:58:00,60.1,48.7,29.56,SW,233,2.7,2.7,66,0.00,,---,0.08,VWS V13.01,2013-05-18 01:58:00,
2013-05-17 19:00:00,60.1,48.7,29.56,SW,236,4.0,4.0,66,0.00,,---,0.08,VWS V13.01,2013-05-18 02:00:00,
2013-05-17 19:01:00,60.1,48.7,29.56,South,177,2.7,2.7,66,0.00,,---,0.08,VWS V13.01,2013-05-18 02:01:00,
2013-05-17 19:02:00,60.1,48.7,29.56,South,177,2.7,2.7,66,0.00,,---,0.08,VWS V13.01,2013-05-18 02:02:00,
2013-05-17 19:03:00,60.1,48.7,29.56,South,177,2.7,2.7,66,0.00,,---,0.08,VWS V13.01,2013-05-18 02:03:00,
2013-05-17 19:04:00,60.1,48.7,29.56,SW,234,2.2,2.2,66,0.00,,---,0.08,VWS V13.01,2013-05-18 02:04:00,
2013-05-17 19:06:00,60.1,48.7,29.56,SW,234,2.2,2.2,66,0.00,,---,0.08,VWS V13.01,2013-05-18 02:06:00,
2013-05-17 19:08:00,60.1,48.7,29.56,SW,234,2.2,2.2,66,0.00,,---,0.08,VWS V13.01,2013-05-18 02:08:00,
2013-05-17 19:09:00,59.4,48.4,29.56,WSW,239,0.0,0.0,67,0.00,,---,0.08,VWS V13.01,2013-05-18 02:09:00,
2013-05-17 19:12:00,59.4,48.4,29.56,SSW,207,2.7,2.7,67,0.00,,---,0.08,VWS V13.01,2013-05-18 02:12:00,
2013-05-17 19:13:00,59.4,48.4,29.56,SSW,207,2.7,2.7,67,0.00,,---,0.08,VWS V13.01,2013-05-18 02:13:00,
2013-05-17 19:14:00,59.4,48.4,29.56,WSW,239,0.0,0.0,67,0.00,,---,0.08,VWS V13.01,2013-05-18 02:14:00,
2013-05-17 19:17:00,59.4,48.4,29.56,WSW,243,0.0,3.1,67,0.00,,---,0.08,VWS V13.01,2013-05-18 02:17:00,
2013-05-17 19:18:00,59.4,48.4,29.56,SE,135,2.7,2.7,67,0.00,,---,0.08,VWS V13.01,2013-05-18 02:18:00,
2013-05-17 19:20:00,59.4,48.4,29.56,SE,135,0.0,0.0,67,0.00,,---,0.08,VWS V13.01,2013-05-18 02:20:00,
2013-05-17 19:22:00,59.4,48.4,29.56,SE,135,0.0,0.0,67,0.00,,---,0.08,VWS V13.01,2013-05-18 02:22:00,
2013-05-17 19:23:00,59.4,48.4,29.56,SE,135,0.0,0.0,67,0.00,,---,0.08,VWS V13.01,2013-05-18 02:23:00,
2013-05-17 19:25:00,59.4,48.4,29.56,NNW,329,0.0,0.0,67,0.00,,---,0.08,VWS V13.01,2013-05-18 02:25:00,
2013-05-17 19:28:00,59.4,48.4,29.56,WSW,253,4.9,4.9,67,0.00,,---,0.08,VWS V13.01,2013-05-18 02:28:00,
2013-05-17 19:29:00,59.4,48.4,29.56,WSW,253,4.9,4.9,67,0.00,,---,0.08,VWS V13.01,2013-05-18 02:29:00,
2013-05-17 19:30:00,59.4,48.4,29.56,WSW,253,4.9,4.9,67,0.00,,---,0.08,VWS V13.01,2013-05-18 02:30:00,
2013-05-17 19:33:00,59.4,48.4,29.56,WSW,249,0.0,0.0,67,0.00,,---,0.08,VWS V13.01,2013-05-18 02:33:00,
2013-05-17 19:34:00,59.4,48.4,29.56,WSW,249,0.0,0.0,67,0.00,,---,0.08,VWS V13.01,2013-05-18 02:34:00,
2013-05-17 19:35:00,59.4,48.4,29.56,WSW,249,0.0,0.0,67,0.00,,---,0.08,VWS V13.01,2013-05-18 02:35:00,
2013-05-17 19:38:00,59.4,48.4,29.56,SW,229,0.0,3.1,67,0.00,,---,0.08,VWS V13.01,2013-05-18 02:38:00,
2013-05-17 19:39:00,59.4,48.4,29.56,SW,229,0.0,3.1,67,0.00,,---,0.08,VWS V13.01,2013-05-18 02:39:00,
2013-05-17 19:40:00,58.8,48.3,29.56,WSW,255,0.0,0.0,68,0.00,,---,0.08,VWS V13.01,2013-05-18 02:40:00,
2013-05-17 19:43:00,58.8,48.3,29.56,WSW,255,0.0,0.0,68,0.00,,---,0.08,VWS V13.01,2013-05-18 02:43:00,
2013-05-17 19:44:00,58.8,48.3,29.56,WSW,255,0.0,0.0,68,0.00,,---,0.08,VWS V13.01,2013-05-18 02:44:00,
2013-05-17 19:45:00,58.8,48.3,29.56,WSW,237,3.1,3.1,68,0.00,,---,0.08,VWS V13.01,2013-05-18 02:45:00,
2013-05-17 19:48:00,58.8,48.3,29.56,SW,221,2.7,2.7,68,0.00,,---,0.08,VWS V13.01,2013-05-18 02:48:00,
2013-05-17 19:49:00,58.8,48.3,29.56,SW,221,2.7,2.7,68,0.00,,---,0.08,VWS V13.01,2013-05-18 02:49:00,
2013-05-17 19:50:00,58.8,48.3,29.56,SW,233,2.2,2.2,68,0.00,,---,0.08,VWS V13.01,2013-05-18 02:50:00,
2013-05-17 19:53:00,58.8,48.3,29.56,SW,231,2.2,2.2,68,0.00,,---,0.08,VWS V13.01,2013-05-18 02:53:00,
2013-05-17 19:54:00,58.8,48.3,29.56,SSE,153,2.2,3.1,68,0.00,,---,0.08,VWS V13.01,2013-05-18 02:54:00,
2013-05-17 19:55:00,58.8,48.3,29.56,SSE,153,2.2,2.2,68,0.00,,---,0.08,VWS V13.01,2013-05-18 02:55:00,
2013-05-17 19:56:00,58.8,48.3,29.56,SSE,153,2.2,2.2,68,0.00,,---,0.08,VWS V13.01,2013-05-18 02:56:00,
2013-05-17 19:58:00,58.8,48.3,29.56,West,273,3.6,3.6,68,0.00,,---,0.08,VWS V13.01,2013-05-18 02:58:00,
2013-05-17 19:59:00,58.8,48.3,29.56,WSW,240,4.5,4.5,68,0.00,,---,0.08,VWS V13.01,2013-05-18 02:59:00,
2013-05-17 20:00:00,58.8,48.3,29.56,WSW,257,4.0,4.5,68,0.00,,---,0.08,VWS V13.01,2013-05-18 03:00:00,
2013-05-17 20:01:00,58.8,48.3,29.56,WSW,257,4.0,4.0,68,0.00,,---,0.08,VWS V13.01,2013-05-18 03:01:00,
2013-05-17 20:04:00,58.8,48.3,29.56,WSW,238,4.0,4.0,68,0.00,,---,0.08,VWS V13.01,2013-05-18 03:04:00,
2013-05-17 20:05:00,58.8,48.3,29.56,WSW,238,4.0,4.0,68,0.00,,---,0.08,VWS V13.01,2013-05-18 03:05:00,
2013-05-17 20:06:00,58.8,48.3,29.56,WSW,238,4.0,4.0,68,0.00,,---,0.08,VWS V13.01,2013-05-18 03:06:00,
2013-05-17 20:09:00,58.8,48.3,29.56,WSW,252,3.1,3.1,68,0.00,,---,0.08,VWS V13.01,2013-05-18 03:09:00,
2013-05-17 20:10:00,58.8,48.3,29.56,WNW,286,5.4,5.4,68,0.00,,---,0.08,VWS V13.01,2013-05-18 03:10:00,
2013-05-17 20:11:00,58.1,48.8,29.56,WNW,286,5.4,5.4,71,0.00,,---,0.08,VWS V13.01,2013-05-18 03:11:00,
2013-05-17 20:14:00,58.1,48.8,29.56,SW,233,2.2,2.2,71,0.00,,---,0.08,VWS V13.01,2013-05-18 03:14:00,
2013-05-17 20:15:00,58.1,48.8,29.56,SW,233,2.2,2.2,71,0.00,,---,0.08,VWS V13.01,2013-05-18 03:15:00,
2013-05-17 20:16:00,58.1,48.8,29.56,SW,233,2.2,2.2,71,0.00,,---,0.08,VWS V13.01,2013-05-18 03:16:00,
2013-05-17 20:19:00,58.1,48.8,29.56,West,271,5.4,5.4,71,0.00,,---,0.08,VWS V13.01,2013-05-18 03:19:00,
2013-05-17 20:20:00,58.1,48.8,29.56,West,271,0.0,0.0,71,0.00,,---,0.08,VWS V13.01,2013-05-18 03:20:00,
2013-05-17 20:21:00,58.1,48.8,29.56,West,271,0.0,0.0,71,0.00,,---,0.08,VWS V13.01,2013-05-18 03:21:00,
2013-05-17 20:24:00,58.1,48.8,29.56,WSW,237,0.0,0.0,71,0.00,,---,0.08,VWS V13.01,2013-05-18 03:24:00,
2013-05-17 20:25:00,58.1,48.8,29.56,West,268,0.0,0.0,71,0.00,,---,0.08,VWS V13.01,2013-05-18 03:25:00,
2013-05-17 20:26:00,58.1,48.8,29.56,West,268,0.0,0.0,71,0.00,,---,0.08,VWS V13.01,2013-05-18 03:26:00,
2013-05-17 20:29:00,58.1,48.8,29.56,WNW,286,3.1,3.1,71,0.00,,---,0.08,VWS V13.01,2013-05-18 03:29:00,
2013-05-17 20:30:00,58.1,48.8,29.56,WNW,286,3.1,3.1,71,0.00,,---,0.08,VWS V13.01,2013-05-18 03:30:00,
2013-05-17 20:31:00,58.1,48.8,29.56,South,174,3.6,3.6,71,0.00,,---,0.08,VWS V13.01,2013-05-18 03:31:00,
2013-05-17 20:34:00,58.1,48.8,29.56,South,182,0.0,2.2,71,0.00,,---,0.08,VWS V13.01,2013-05-18 03:34:00,
2013-05-17 20:35:00,58.1,48.8,29.56,South,182,0.0,0.0,71,0.00,,---,0.08,VWS V13.01,2013-05-18 03:35:00,
2013-05-17 20:36:00,58.1,48.8,29.59,South,182,0.0,0.0,71,0.00,,---,0.08,VWS V13.01,2013-05-18 03:36:00,
2013-05-17 20:39:00,58.1,48.8,29.59,NNE,14,0.0,0.0,71,0.00,,---,0.08,VWS V13.01,2013-05-18 03:39:00,
2013-05-17 20:40:00,58.1,48.8,29.59,NNE,14,0.0,0.0,71,0.00,,---,0.08,VWS V13.01,2013-05-18 03:40:00,
2013-05-17 20:41:00,58.1,48.8,29.59,NNE,14,0.0,0.0,71,0.00,,---,0.08,VWS V13.01,2013-05-18 03:41:00,
2013-05-17 20:45:00,58.1,48.8,29.59,NNE,14,0.0,0.0,71,0.00,,---,0.08,VWS V13.01,2013-05-18 03:45:00,
2013-05-17 20:46:00,58.1,48.8,29.59,NNE,14,0.0,0.0,71,0.00,,---,0.08,VWS V13.01,2013-05-18 03:46:00,
2013-05-17 20:50:00,58.1,48.8,29.59,NNE,14,0.0,0.0,71,0.00,,---,0.08,VWS V13.01,2013-05-18 03:50:00,
2013-05-17 20:51:00,58.1,48.8,29.59,NNE,14,0.0,0.0,71,0.00,,---,0.08,VWS V13.01,2013-05-18 03:51:00,
2013-05-17 20:55:00,58.1,48.8,29.59,West,260,4.0,4.5,71,0.00,,---,0.08,VWS V13.01,2013-05-18 03:55:00,
2013-05-17 20:56:00,58.1,48.8,29.59,West,260,4.0,4.0,71,0.00,,---,0.08,VWS V13.01,2013-05-18 03:56:00,
2013-05-17 21:00:00,58.1,48.8,29.59,West,280,3.1,3.1,71,0.00,,---,0.08,VWS V13.01,2013-05-18 04:00:00,
2013-05-17 21:01:00,58.1,48.8,29.59,West,280,3.1,3.1,71,0.00,,---,0.08,VWS V13.01,2013-05-18 04:01:00,
2013-05-17 21:06:00,58.1,48.8,29.59,West,260,2.2,2.2,71,0.00,,---,0.08,VWS V13.01,2013-05-18 04:06:00,
2013-05-17 21:11:00,58.1,48.8,29.59,WSW,249,4.0,4.0,71,0.00,,---,0.08,VWS V13.01,2013-05-18 04:11:00,
2013-05-17 21:16:00,56.8,49.7,29.59,West,275,4.0,4.0,77,0.00,,---,0.08,VWS V13.01,2013-05-18 04:16:00,
2013-05-17 21:21:00,56.8,49.7,29.59,South,169,0.0,0.0,77,0.00,,---,0.08,VWS V13.01,2013-05-18 04:21:00,
2013-05-17 21:22:00,56.8,49.7,29.59,South,169,0.0,0.0,77,0.00,,---,0.08,VWS V13.01,2013-05-18 04:22:00,
2013-05-17 21:26:00,56.8,49.7,29.59,West,266,2.7,2.7,77,0.00,,---,0.08,VWS V13.01,2013-05-18 04:26:00,
2013-05-17 21:27:00,56.8,49.7,29.59,WSW,244,3.1,3.1,77,0.00,,---,0.08,VWS V13.01,2013-05-18 04:27:00,
2013-05-17 21:31:00,56.8,49.7,29.59,West,266,2.7,2.7,77,0.00,,---,0.08,VWS V13.01,2013-05-18 04:31:00,
2013-05-17 21:32:00,56.8,49.7,29.59,West,266,2.7,2.7,77,0.00,,---,0.08,VWS V13.01,2013-05-18 04:32:00,
2013-05-17 21:36:00,56.8,49.7,29.59,WSW,243,0.0,0.0,77,0.00,,---,0.08,VWS V13.01,2013-05-18 04:36:00,
2013-05-17 21:37:00,56.8,49.7,29.59,West,279,4.9,4.9,77,0.00,,---,0.08,VWS V13.01,2013-05-18 04:37:00,
2013-05-17 21:41:00,56.8,49.7,29.59,West,264,2.7,2.7,77,0.00,,---,0.08,VWS V13.01,2013-05-18 04:41:00,
2013-05-17 21:42:00,56.8,49.7,29.59,West,264,2.7,2.7,77,0.00,,---,0.08,VWS V13.01,2013-05-18 04:42:00,
2013-05-17 21:46:00,56.7,49.9,29.59,SSE,164,3.1,3.1,78,0.00,,---,0.08,VWS V13.01,2013-05-18 04:46:00,
2013-05-17 21:47:00,56.7,49.9,29.59,SSE,164,3.1,3.1,78,0.00,,---,0.08,VWS V13.01,2013-05-18 04:47:00,
2013-05-17 21:51:00,56.7,49.9,29.59,SW,236,2.2,2.2,78,0.00,,---,0.08,VWS V13.01,2013-05-18 04:51:00,
2013-05-17 21:52:00,56.7,49.9,29.59,SW,236,2.2,2.2,78,0.00,,---,0.08,VWS V13.01,2013-05-18 04:52:00,
2013-05-17 21:57:00,56.7,49.9,29.59,West,278,0.0,0.0,78,0.00,,---,0.08,VWS V13.01,2013-05-18 04:57:00,
2013-05-17 22:02:00,56.7,49.9,29.59,SSW,212,0.0,0.0,78,0.00,,---,0.08,VWS V13.01,2013-05-18 05:02:00,
2013-05-17 22:07:00,56.7,49.9,29.59,SW,221,0.0,0.0,78,0.00,,---,0.08,VWS V13.01,2013-05-18 05:07:00,
2013-05-17 22:08:00,56.7,49.9,29.59,WSW,251,3.1,3.1,78,0.00,,---,0.08,VWS V13.01,2013-05-18 05:08:00,
2013-05-17 22:12:00,56.7,49.9,29.59,WSW,246,0.0,0.0,78,0.00,,---,0.08,VWS V13.01,2013-05-18 05:12:00,
2013-05-17 22:13:00,56.5,49.7,29.59,WSW,246,0.0,0.0,78,0.00,,---,0.08,VWS V13.01,2013-05-18 05:13:00,
2013-05-17 22:17:00,56.5,49.7,29.59,SSW,193,2.7,2.7,78,0.00,,---,0.08,VWS V13.01,2013-05-18 05:17:00,
2013-05-17 22:18:00,56.5,49.7,29.59,SSW,193,2.7,2.7,78,0.00,,---,0.08,VWS V13.01,2013-05-18 05:18:00,
2013-05-17 22:22:00,56.5,49.7,29.59,SW,236,3.1,3.1,78,0.00,,---,0.08,VWS V13.01,2013-05-18 05:22:00,
2013-05-17 22:23:00,56.5,49.7,29.59,SW,236,3.1,3.1,78,0.00,,---,0.08,VWS V13.01,2013-05-18 05:23:00,
2013-05-17 22:27:00,56.5,49.7,29.59,WSW,241,5.4,5.4,78,0.00,,---,0.08,VWS V13.01,2013-05-18 05:27:00,
2013-05-17 22:28:00,56.5,49.7,29.59,WSW,241,5.4,5.4,78,0.00,,---,0.08,VWS V13.01,2013-05-18 05:28:00,
2013-05-17 22:33:00,56.5,49.7,29.59,SW,221,2.2,2.2,78,0.00,,---,0.08,VWS V13.01,2013-05-18 05:33:00,
2013-05-17 22:34:00,56.5,49.7,29.59,ESE,112,2.7,2.7,78,0.00,,---,0.08,VWS V13.01,2013-05-18 05:34:00,
2013-05-17 22:38:00,56.5,49.7,29.59,SSW,199,4.0,4.0,78,0.00,,---,0.08,VWS V13.01,2013-05-18 05:38:00,
2013-05-17 22:39:00,56.5,49.7,29.59,SSW,199,4.0,4.0,78,0.00,,---,0.08,VWS V13.01,2013-05-18 05:39:00,
2013-05-17 22:43:00,55.9,49.5,29.59,SW,220,2.7,2.7,79,0.00,,---,0.08,VWS V13.01,2013-05-18 05:43:00,
2013-05-17 22:44:00,55.9,49.5,29.59,SSW,200,2.2,2.2,79,0.00,,---,0.08,VWS V13.01,2013-05-18 05:44:00,
2013-05-17 22:48:00,55.9,49.5,29.62,West,265,3.6,3.6,79,0.00,,---,0.08,VWS V13.01,2013-05-18 05:48:00,
2013-05-17 22:49:00,55.9,49.5,29.62,West,265,3.6,3.6,79,0.00,,---,0.08,VWS V13.01,2013-05-18 05:49:00,
2013-05-17 22:53:00,55.9,49.5,29.62,WNW,285,3.6,3.6,79,0.00,,---,0.08,VWS V13.01,2013-05-18 05:53:00,
2013-05-17 22:54:00,55.9,49.5,29.62,WNW,285,3.6,3.6,79,0.00,,---,0.08,VWS V13.01,2013-05-18 05:54:00,
2013-05-17 22:58:00,55.9,49.5,29.62,West,277,4.9,4.9,79,0.00,,---,0.08,VWS V13.01,2013-05-18 05:58:00,
2013-05-17 22:59:00,55.9,49.5,29.62,West,277,4.9,4.9,79,0.00,,---,0.08,VWS V13.01,2013-05-18 05:59:00,
2013-05-17 23:03:00,55.4,49.3,29.62,West,261,0.0,0.0,80,0.00,,---,0.08,VWS V13.01,2013-05-18 06:03:00,
2013-05-17 23:04:00,55.4,49.3,29.62,West,261,0.0,0.0,80,0.00,,---,0.08,VWS V13.01,2013-05-18 06:04:00,
2013-05-17 23:08:00,55.4,49.3,29.62,WSW,258,0.0,3.1,80,0.00,,---,0.08,VWS V13.01,2013-05-18 06:08:00,
2013-05-17 23:09:00,55.4,49.3,29.62,WSW,258,0.0,0.0,80,0.00,,---,0.08,VWS V13.01,2013-05-18 06:09:00,
2013-05-17 23:13:00,55.2,49.2,29.62,West,280,2.7,2.7,80,0.00,,---,0.08,VWS V13.01,2013-05-18 06:13:00,
2013-05-17 23:14:00,55.2,49.2,29.62,West,280,2.7,2.7,80,0.00,,---,0.08,VWS V13.01,2013-05-18 06:14:00,
2013-05-17 23:15:00,55.2,49.2,29.62,West,265,3.6,4.0,80,0.00,,---,0.08,VWS V13.01,2013-05-18 06:15:00,
2013-05-17 23:18:00,55.2,49.2,29.62,West,265,3.6,3.6,80,0.00,,---,0.08,VWS V13.01,2013-05-18 06:18:00,
2013-05-17 23:19:00,55.2,49.2,29.62,West,265,3.6,3.6,80,0.00,,---,0.08,VWS V13.01,2013-05-18 06:19:00,
2013-05-17 23:20:00,55.2,49.2,29.62,West,265,3.6,3.6,80,0.00,,---,0.08,VWS V13.01,2013-05-18 06:20:00,
2013-05-17 23:24:00,55.0,49.0,29.62,SW,224,2.7,2.7,80,0.00,,---,0.08,VWS V13.01,2013-05-18 06:24:00,
2013-05-17 23:25:00,55.0,49.0,29.62,SW,224,2.7,2.7,80,0.00,,---,0.08,VWS V13.01,2013-05-18 06:25:00,
2013-05-17 23:29:00,55.0,49.0,29.62,WSW,257,0.0,0.0,80,0.00,,---,0.08,VWS V13.01,2013-05-18 06:29:00,
2013-05-17 23:30:00,55.0,49.0,29.62,East,89,0.0,0.0,80,0.00,,---,0.08,VWS V13.01,2013-05-18 06:30:00,
2013-05-17 23:34:00,55.0,49.0,29.62,WSW,243,0.0,0.0,80,0.00,,---,0.08,VWS V13.01,2013-05-18 06:34:00,
2013-05-17 23:35:00,55.0,49.0,29.62,WSW,243,0.0,0.0,80,0.00,,---,0.08,VWS V13.01,2013-05-18 06:35:00,
2013-05-17 23:36:00,55.0,49.0,29.62,SW,214,3.1,3.1,80,0.00,,---,0.08,VWS V13.01,2013-05-18 06:36:00,
2013-05-17 23:39:00,55.0,49.0,29.62,WNW,298,0.0,0.0,80,0.00,,---,0.08,VWS V13.01,2013-05-18 06:39:00,
2013-05-17 23:40:00,54.9,48.8,29.62,SSW,200,0.0,0.0,80,0.00,,---,0.08,VWS V13.01,2013-05-18 06:40:00,
2013-05-17 23:41:00,54.9,48.8,29.62,SSW,200,0.0,0.0,80,0.00,,---,0.08,VWS V13.01,2013-05-18 06:41:00,
2013-05-17 23:44:00,54.9,48.8,29.62,WSW,239,2.7,3.1,80,0.00,,---,0.08,VWS V13.01,2013-05-18 06:44:00,
2013-05-17 23:45:00,54.7,48.6,29.62,WSW,239,2.7,2.7,80,0.00,,---,0.08,VWS V13.01,2013-05-18 06:45:00,
2013-05-17 23:46:00,54.7,48.6,29.62,WSW,239,2.7,2.7,80,0.00,,---,0.08,VWS V13.01,2013-05-18 06:46:00,
2013-05-17 23:49:00,54.7,48.6,29.62,WNW,302,0.0,0.0,80,0.00,,---,0.08,VWS V13.01,2013-05-18 06:49:00,
2013-05-17 23:50:00,54.7,48.6,29.62,WSW,248,0.0,0.0,80,0.00,,---,0.08,VWS V13.01,2013-05-18 06:50:00,
2013-05-17 23:51:00,54.7,48.6,29.62,WSW,248,0.0,0.0,80,0.00,,---,0.08,VWS V13.01,2013-05-18 06:51:00,
2013-05-17 23:54:00,54.7,48.6,29.62,South,184,0.0,0.0,80,0.00,,---,0.08,VWS V13.01,2013-05-18 06:54:00,
2013-05-17 23:55:00,54.7,48.6,29.62,South,184,0.0,0.0,80,0.00,,---,0.08,VWS V13.01,2013-05-18 06:55:00,
2013-05-17 23:56:00,54.7,48.6,29.62,South,184,0.0,0.0,80,0.00,,---,0.08,VWS V13.01,2013-05-18 06:56:00,
2013-05-17 23:59:00,54.5,48.8,29.62,WSW,248,3.1,3.6,81,0.00,,---,0.08,VWS V13.01,2013-05-18 06:59:00,